logo
Games tagged Tactical RPG
# Game Release date
Price
Score rank
(Userscore / Metascore)
Owners
Players
Playtime (Median)
Developer(s)
Publisher(s)
1 Divinity: Original Sin 2 - Definitive Edition Sep 14, 2017 $44.99N/A (N/A/93%)5,000,000 .. 10,000,0002.75%04:36 (04:52)Larian StudiosLarian Studios
2 RimWorld Oct 17, 2018 $34.99N/A (N/A/87%)2,000,000 .. 5,000,00012.5%14:30 (07:24)Ludeon StudiosLudeon Studios
3 Wildermyth Jun 15, 2021 $24.99N/A (N/A/86%)200,000 .. 500,0000%00:00 (00:00)Worldwalker Games LLCWorldwalker Games LLC, WhisperGames
4 Mass Effect Legendary Edition May 14, 2021 $59.99N/A (N/A/86%)500,000 .. 1,000,0005.95%25:23 (37:11)BioWareElectronic Arts
5 Planescape: Torment: Enhanced Edition Apr 11, 2017 $19.99N/A (N/A/85%)200,000 .. 500,0004.88%21:18 (13:38)BeamdogBeamdog
6 The Legend of Heroes: Trails in the Sky Jul 29, 2014 $19.99N/A (N/A/85%)200,000 .. 500,0003.03%07:46 (02:35)Nihon FalcomXSEED Games, Marvelous USA, Inc.
7 Fuga: Melodies of Steel Jul 28, 2021 $39.99N/A (N/A/84%)20,000 .. 50,0000%00:00 (00:00)CyberConnect2CyberConnect2
8 Digimon Survive Jul 28, 2022 $59.99N/A (N/A/83%)50,000 .. 100,0000%00:00 (00:00)HYDE, Inc.Bandai Namco Entertainment Inc.
9 Valkyria Chronicles 4 Complete Edition Sep 25, 2018 $49.99N/A (N/A/83%)200,000 .. 500,0000%00:00 (00:00)SEGASEGA
10 Silent Storm Gold Edition Sep 9, 2004 $9.99N/A (N/A/83%)200,000 .. 500,0008.33%12:55 (04:18)NivalTHQ Nordic
11 Gloomhaven Oct 20, 2021 $34.99N/A (N/A/82%)200,000 .. 500,0000%00:00 (00:00)Flaming Fowl StudiosTwin Sails Interactive
12 Fell Seal: Arbiter's Mark Apr 30, 2019 $29.99N/A (N/A/82%)200,000 .. 500,0000%00:00 (00:00)6 Eyes StudioFulqrum Publishing
13 Wargroove Feb 1, 2019 $19.99N/A (N/A/82%)500,000 .. 1,000,0000%00:00 (00:00)ChucklefishChucklefish
14 The Banner Saga 3 Jul 26, 2018 $24.99N/A (N/A/82%)100,000 .. 200,0000%00:00 (00:00)StoicStoic Studio
15 The Banner Saga 2 Apr 19, 2016 $24.99N/A (N/A/82%)200,000 .. 500,0000%00:00 (00:00)StoicStoic Studio
16 King's Bounty: Armored Princess Nov 19, 2009 $9.99N/A (N/A/82%)500,000 .. 1,000,0000%00:00 (00:00)Katauri InteractiveFulqrum Publishing
17 Fallout Tactics: Brotherhood of Steel Mar 1, 2001 $9.99N/A (N/A/82%)1,000,000 .. 2,000,0000%00:00 (00:00)14° EastBethesda Softworks
18 Warhammer 40,000: Chaos Gate - Daemonhunters May 5, 2022 $44.99N/A (N/A/81%)200,000 .. 500,00016.67%01:12 (01:12)Complex GamesFrontier Foundry
19 Trials of Fire Apr 9, 2021 $19.99N/A (N/A/81%)100,000 .. 200,0000%00:00 (00:00)Whatboy GamesWhatboy Games
20 Disgaea 2 PC Jan 30, 2017 $19.99N/A (N/A/81%)100,000 .. 200,0000%00:00 (00:00)Nippon Ichi Software, Inc.NIS America, Inc.
21 The Age of Decadence Oct 14, 2015 $12.99N/A (N/A/81%)200,000 .. 500,0000%00:00 (00:00)Iron Tower StudioIron Tower Studio
22 Expeditions: Rome Jan 20, 2022 $44.99N/A (N/A/80%)200,000 .. 500,00012.5%01:17 (00:25)Logic ArtistsTHQ Nordic
23 Dark Deity Jun 15, 2021 $24.99N/A (N/A/80%)100,000 .. 200,0000%00:00 (00:00)Sword & Axe LLCFreedom Games
24 Wintermoor Tactics Club May 5, 2020 $14.99N/A (N/A/80%)20,000 .. 50,0000%00:00 (00:00)EVC GamesVersus Evil
25 Battle Brothers Mar 24, 2017 $29.99N/A (N/A/80%)500,000 .. 1,000,0007.14%20:20 (13:09)Overhype StudiosOverhype Studios
26 Card Hunter Jul 13, 2015 FreeN/A (N/A/80%)1,000,000 .. 2,000,0000%00:00 (00:00)The Knights of UnityThe Knights of Unity
27 The Banner Saga Jan 14, 2014 $7.99N/A (N/A/80%)500,000 .. 1,000,0000%00:00 (00:00)StoicStoic Studio
28 Fallen Enchantress: Legendary Heroes May 22, 2013 $24.99N/A (N/A/80%)50,000 .. 100,0000%00:00 (00:00)Stardock EntertainmentStardock Entertainment
29 Super Robot Wars 30 Oct 27, 2021 $59.99N/A (N/A/79%)200,000 .. 500,0000%00:00 (00:00)B.B.STUDIO CO.,LTD.Bandai Namco Entertainment
30 Midnight Protocol Oct 13, 2021 $14.99N/A (N/A/79%)20,000 .. 50,0000%00:00 (00:00)LuGus StudiosIceberg Interactive
31 King's Bounty: The Legend Sep 23, 2008 $6.99N/A (N/A/79%)200,000 .. 500,0001.61%44:34 (14:51)Fulqrum PublishingFulqrum Publishing
32 King's Bounty: Crossworlds Sep 17, 2010 $14.99N/A (N/A/78%)200,000 .. 500,0000%00:00 (00:00)Katauri InteractiveFulqrum Publishing
33 Hard West 2 Aug 4, 2022 $29.99N/A (N/A/77%)50,000 .. 100,0000%00:00 (00:00)Ice Code GamesGood Shepherd Entertainment
34 Star Renegades Sep 8, 2020 $24.99N/A (N/A/77%)200,000 .. 500,0000%00:00 (00:00)Massive Damage, Inc.Raw Fury
35 Weird West Mar 31, 2022 $39.99N/A (N/A/76%)100,000 .. 200,0000%00:00 (00:00)WolfEye StudiosDevolver Digital
36 Stirring Abyss Oct 29, 2020 $24.99N/A (N/A/76%)0 .. 20,0000%00:00 (00:00)Sleepy Sentry, K-ProjectSlitherine Ltd.
37 Lost Eidolons Oct 13, 2022 $34.99N/A (N/A/75%)50,000 .. 100,000100%00:39 (00:39)Ocean Drive Studio, Inc.Ocean Drive Studio, Inc.
38 Vaporum Sep 28, 2017 $19.99N/A (N/A/75%)0 .. 20,0000%00:00 (00:00)Fatbot Games, s. r. o.Fatbot Games, s. r. o.
39 Armello Sep 1, 2015 $19.99N/A (N/A/75%)1,000,000 .. 2,000,0001.25%01:41 (00:33)League of GeeksLeague of Geeks
40 Chroma Squad Apr 30, 2015 $14.99N/A (N/A/75%)100,000 .. 200,0000%00:00 (00:00)Behold StudiosBehold Studios
41 Phoenix Point Dec 3, 2020 $24.99N/A (N/A/74%)200,000 .. 500,0004.88%00:03 (00:02)Snapshot Games Inc.Snapshot Games Inc.
42 Fort Triumph Apr 16, 2020 $19.99N/A (N/A/74%)50,000 .. 100,0000%00:00 (00:00)CookieByte EntertainmentAll in! Games
43 Expeditions: Viking Apr 27, 2017 $29.99N/A (N/A/74%)200,000 .. 500,0000%00:00 (00:00)Logic ArtistsTHQ Nordic
44 Disgaea PC Feb 24, 2016 $19.99N/A (N/A/74%)500,000 .. 1,000,0000%00:00 (00:00)Nippon Ichi Software, Inc.NIS America, Inc.
45 Mordheim: City of the Damned Nov 19, 2015 $19.99N/A (N/A/74%)500,000 .. 1,000,0000%00:00 (00:00)Rogue FactorNacon
46 Blackguards 2 Jan 20, 2015 $9.99N/A (N/A/74%)200,000 .. 500,0000%00:00 (00:00)Daedalic EntertainmentDaedalic Entertainment
47 Eador. Masters of the Broken World Apr 19, 2013 $19.99N/A (N/A/74%)1,000,000 .. 2,000,0000%00:00 (00:00)Snowbird GamesSnowbird Games
48 King's Bounty: Warriors of the North Oct 25, 2012 $1.99N/A (N/A/74%)200,000 .. 500,0000%00:00 (00:00)Fulqrum PublishingFulqrum Publishing
49 Popup Dungeon Aug 12, 2020 $24.99N/A (N/A/73%)50,000 .. 100,0000%00:00 (00:00)Triple.B.TitlesHumble Games
50 Nowhere Prophet Jul 19, 2019 $24.99N/A (N/A/73%)50,000 .. 100,0003.13%06:43 (02:14)Sharkbomb StudiosNo More Robots
51 Halcyon 6: Starbase Commander (LIGHTSPEED EDITION) Aug 10, 2017 $14.99N/A (N/A/73%)100,000 .. 200,0000%00:00 (00:00)Massive Damage, Inc.Massive Damage, Inc.
52 Children of Zodiarcs Jul 18, 2017 $17.99N/A (N/A/73%)20,000 .. 50,0000%00:00 (00:00)Cardboard UtopiaSquare Enix
53 Starpoint Gemini Warlords May 23, 2017 $34.99N/A (N/A/73%)200,000 .. 500,0000%00:00 (00:00)Little Green Men GamesLittle Green Men Games
54 Regalia: Of Men and Monarchs May 18, 2017 $19.99N/A (N/A/73%)50,000 .. 100,0000%00:00 (00:00)Pixelated MilkPixelated Milk
55 MASSIVE CHALICE Jun 1, 2015 $19.99N/A (N/A/73%)50,000 .. 100,0000%00:00 (00:00)Double Fine ProductionsDouble Fine Productions
56 Earth 2160 Apr 1, 2006 $4.99N/A (N/A/73%)500,000 .. 1,000,0000%00:00 (00:00)Reality Pump StudiosTopware Interactive, ACE
57 Aarklash: Legacy Sep 12, 2013 $15.99N/A (N/A/72%)100,000 .. 200,0000%00:00 (00:00)Cyanide StudioNacon
58 Viola: The Heroine's Melody Feb 17, 2021 $14.99N/A (N/A/71%)0 .. 20,0000%00:00 (00:00)Jelle van DoorneJelle van Doorne
59 SD GUNDAM G GENERATION CROSS RAYS Nov 27, 2019 $59.99N/A (N/A/71%)500,000 .. 1,000,0000%00:00 (00:00)TOM CREATE, 株式会社トムクリエイトBANDAI NAMCO Entertainment, 株式会社バンダイナムコエンターテインメント
60 Halcyon 6: Starbase Commander Sep 8, 2016 $14.99N/A (N/A/71%)100,000 .. 200,0000%00:00 (00:00)Massive Damage, Inc.Massive Damage, Inc.
61 Legends of Eisenwald Jul 2, 2015 $9.99N/A (N/A/71%)100,000 .. 200,0000%00:00 (00:00)Aterdux EntertainmentAterdux Entertainment
62 TINY METAL: FULL METAL RUMBLE Jul 11, 2019 $14.99N/A (N/A/70%)0 .. 20,0000%00:00 (00:00)AREA 35, Inc.AREA 34, Inc.
63 Starpoint Gemini 2 Sep 26, 2014 $34.99N/A (N/A/70%)500,000 .. 1,000,0000%00:00 (00:00)Little Green Men GamesLittle Green Men Games
64 Vaporum: Lockdown Sep 15, 2020 $17.99N/A (N/A/68%)0 .. 20,0000%00:00 (00:00)Fatbot Games, s. r. o.Fatbot Games, s. r. o.
65 Pathway Apr 11, 2019 $15.99N/A (N/A/68%)200,000 .. 500,0000%00:00 (00:00)RobotalityChucklefish
66 WARTILE Feb 8, 2018 $19.99N/A (N/A/68%)0 .. 20,0000%00:00 (00:00)Playwood ProjectDeck13, WhisperGames
67 TINY METAL Dec 21, 2017 $24.99N/A (N/A/68%)0 .. 20,0000%00:00 (00:00)AREA 35, Inc.Sony Music Entertainment (Japan) Inc. / UNTIES
68 Blackguards Jan 22, 2014 $9.99N/A (N/A/68%)500,000 .. 1,000,0000%00:00 (00:00)Daedalic EntertainmentDaedalic Entertainment
69 Fallen Legion: Rise to Glory Jan 5, 2018 $29.99N/A (N/A/66%)0 .. 20,0000%00:00 (00:00)YummyYummyTummy, MintsphereYummyYummyTummy
70 Ash of Gods: Redemption Mar 23, 2018 $24.99N/A (N/A/65%)500,000 .. 1,000,0000%00:00 (00:00)AurumDustAurumDust, WhisperGames
71 Masquerada: Songs and Shadows Sep 30, 2016 $19.99N/A (N/A/64%)100,000 .. 200,0000%00:00 (00:00)Witching Hour StudiosYsbryd Games
72 Has-Been Heroes Mar 28, 2017 $19.99N/A (N/A/63%)50,000 .. 100,0000%00:00 (00:00)FrozenbyteGameTrust Games
73 Jagged Alliance: Crossfire Aug 24, 2012 $14.99N/A (N/A/63%)100,000 .. 200,0000%00:00 (00:00)Coreplay GmbHTHQ Nordic
74 WARSAW Oct 2, 2019 $23.99N/A (N/A/62%)20,000 .. 50,0001.61%00:09 (00:03)Pixelated MilkPixelated Milk, gaming company
75 Jagged Alliance - Back in Action Feb 8, 2012 $19.99N/A (N/A/62%)200,000 .. 500,0000%00:00 (00:00)Coreplay GmbH, Bigmoon StudiosTHQ Nordic
76 Prince of Qin Oct 26, 2021 $9.99N/A (N/A/61%)0 .. 20,0000%00:00 (00:00)Object SoftwareStrategy First
77 The Dwarves Dec 1, 2016 $39.99N/A (N/A/61%)200,000 .. 500,0000%00:00 (00:00)KING ArtTHQ Nordic, EuroVideo Medien
78 Kingdom Under Fire: The Crusaders Feb 28, 2020 $19.99N/A (N/A/60%)20,000 .. 50,0000%00:00 (00:00)BluesideBlueside, Incredi Soft
79 Jagged Alliance: Rage! Dec 6, 2018 $19.99N/A (N/A/59%)0 .. 20,0000%00:00 (00:00)Cliffhanger ProductionsHandyGames
80 Prime World: Defenders Jun 5, 2013 $9.99N/A (N/A/58%)200,000 .. 500,0000%00:00 (00:00)NivalNival
81 Forged of Blood Aug 1, 2019 $29.99N/A (N/A/57%)0 .. 20,0000%00:00 (00:00)Critical ForgeCritical Forge
82 City of the Shroud Aug 9, 2018 N/AN/A (N/A/57%)0 .. 20,0000%00:00 (00:00)Abyssal Arts Ltd.Abyssal Arts Ltd.
83 Tears of Avia Oct 15, 2020 $14.99N/A (N/A/56%)50,000 .. 100,0000%00:00 (00:00)CooCooSqueaky GamesPQube
84 Grimshade Mar 26, 2019 $19.99N/A (N/A/53%)20,000 .. 50,0000%00:00 (00:00)TALEROCK Asterion Games
85 The Waylanders Feb 2, 2022 $34.99N/A (N/A/51%)0 .. 20,0000%00:00 (00:00)GATO STUDIOGATO STUDIO
86 Confrontation Apr 4, 2012 $9.99N/A (N/A/51%)100,000 .. 200,0000%00:00 (00:00)Cyanide StudioFocus Home Interactive
87 Line Of Defense Tactics - Tactical Advantage Mar 17, 2014 $9.99N/A (N/A/47%)0 .. 20,0000%00:00 (00:00)3000AD3000AD
88 Requiescat Oct 2021 N/AN/A (N/A)20,000 .. 50,0000%00:00 (00:00)GameBarley CO.,LTD.GameBarley CO.,LTD.
89 Eternal Dreamers Jul 24, 2021 FreeN/A (N/A)100,000 .. 200,0000%00:00 (00:00)Studio BiestStudio Biest
90 Paradigm Shift May 31, 2021 FreeN/A (N/A)20,000 .. 50,0000%00:00 (00:00)PixieBixxie, NUU-Pro, telosLunar Boon
91 After Off War May 21, 2021 N/AN/A (N/A)0 .. 20,0000%00:00 (00:00)DAY DAY UP GAMEDAY DAY UP GAME
92 Giants May 7, 2021 N/AN/A (N/A)200,000 .. 500,0000%00:00 (00:00)Singta inc.Singta Inc.
93 Dudes on a Map: Virtual Grid Paper Apr 20, 2021 FreeN/A (N/A)0 .. 20,0000%00:00 (00:00)Big Sky Software LLCBig Sky Software LLC
94 全战天下 Apr 12, 2021 FreeN/A (N/A)20,000 .. 50,0000%00:00 (00:00)全战天下全战天下
95 Magicians' Legacy: Prologue Apr 6, 2021 FreeN/A (N/A)50,000 .. 100,0000%00:00 (00:00)Greenolor StudioGreenolor Studio
96 Heart of Enya Mar 26, 2021 FreeN/A (N/A)20,000 .. 50,0000%00:00 (00:00)Team BapyTeam Bapy
97 Condors Vs Ocelots Mar 19, 2021 FreeN/A (N/A)0 .. 20,0000%00:00 (00:00)Titanomachy StudiosTitanomachy Studios
98 Realm Engine | Virtual Tabletop Mar 5, 2021 FreeN/A (N/A)0 .. 20,0000%00:00 (00:00)Blake JohnsonPixel Ghost
99 Quintaesencia Mar 5, 2021 FreeN/A (N/A)20,000 .. 50,0000%00:00 (00:00)AngelusAngelus
100 Wonhon: Prologue Feb 28, 2021 FreeN/A (N/A)200,000 .. 500,0000%00:00 (00:00)BUSAN SANAI GAMESSuperGG.com
101 Wartune Reborn Feb 26, 2021 FreeN/A (N/A)50,000 .. 100,0000%00:00 (00:00)7Road7Road
102 Sid Classic Feb 18, 2021 FreeN/A (N/A)20,000 .. 50,0000%00:00 (00:00)Singta inc.Singta inc.
103 修真之路 Feb 6, 2021 FreeN/A (N/A)0 .. 20,0000%00:00 (00:00)游韵游戏网络公司游韵游戏网络公司
104 Warriors: Rise to Glory! Online Multiplayer Open Beta Jan 28, 2021 N/AN/A (N/A)50,000 .. 100,0000%00:00 (00:00)Gavra GamesGavra Games
105 Space Cats Tactics: Prologue Jan 1, 2021 FreeN/A (N/A)50,000 .. 100,0000%00:00 (00:00)Mitzi GamesMitzi Games
106 Slaves of Magic prelude Dec 14, 2020 N/AN/A (N/A)50,000 .. 100,0000%00:00 (00:00)Amethyst DreamersAmethyst Dreamers
107 Grid Fight - Mask of the Goddess - First Boot Dec 7, 2020 N/AN/A (N/A)0 .. 20,0000%00:00 (00:00)Playtra GamesPlaytra Games
108 911 Emergency Manager Nov 20, 2020 N/AN/A (N/A)20,000 .. 50,0000%00:00 (00:00)GoodZeit UGGoodZeit UG
109 Aegis Online Oct 30, 2020 FreeN/A (N/A)0 .. 20,0000%00:00 (00:00)Kale the QuickEaster Egg Productions
110 The Last Spell: Prologue Oct 29, 2020 N/AN/A (N/A)100,000 .. 200,0000%00:00 (00:00)Ishtar GamesThe Arcade Crew, Gamera Game (China)
111 Gladiator Guild Manager: Prologue Aug 27, 2020 FreeN/A (N/A)200,000 .. 500,0000%00:00 (00:00)Entertainment ForgeGrabTheGames, Gamera Games
112 Dungeon & Derision Aug 6, 2020 FreeN/A (N/A)0 .. 20,0000%00:00 (00:00)Alexis AngelyAlexis Angely
113 8-Bit Attack Jul 15, 2020 FreeN/A (N/A)20,000 .. 50,0000%00:00 (00:00)Startale Games, Petersen GamesStartale Games
114 DF-41 Simulator Jul 7, 2020 FreeN/A (N/A)0 .. 20,0000%00:00 (00:00)Bo ChenBo Chen
115 The falling tower Jun 23, 2020 FreeN/A (N/A)0 .. 20,0000%00:00 (00:00)CarotaaDream Night Studio
116 Hopebringers May 25, 2020 FreeN/A (N/A)0 .. 20,0000%00:00 (00:00)Critical Miss GamesCritical Miss Games
117 Zoria: Age of Shattering Prologue Apr 30, 2020 FreeN/A (N/A)100,000 .. 200,0000%00:00 (00:00)Tiny Trinket GamesAnshar Publishing
118 INFILTRIA Mar 3, 2020 N/AN/A (N/A)0 .. 20,0000%00:00 (00:00)sectuZNETsectuZ.NET
119 Battlecraft - Tactics Online Feb 10, 2020 N/AN/A (N/A)0 .. 20,0000%00:00 (00:00)Sigil EntertainmentSigil Entertainment
120 Mix-Sign: Girl with 3 Signs Jan 6, 2020 FreeN/A (N/A)20,000 .. 50,0000%00:00 (00:00)KellenKyoKellenKyo
121 ReversiQuest2 Jan 6, 2020 N/AN/A (N/A)0 .. 20,0000%00:00 (00:00)YokogosystemsYokogosystems
122 Game of Thrones Winter is Coming Nov 14, 2019 FreeN/A (N/A)200,000 .. 500,0000%00:00 (00:00)YOUZU (SINGAPORE) PTE. LTD.YOUZU (SINGAPORE) PTE. LTD.
123 Dawn of the Dragons: Ascension Nov 1, 2019 FreeN/A (N/A)20,000 .. 50,0000%00:00 (00:00)5th Planet Games Development ApS5th Planet Games Development ApS
124 Braveland Heroes Sep 16, 2019 FreeN/A (N/A)100,000 .. 200,0000%00:00 (00:00)Tortuga TeamTortuga Team
125 《鬼畜战记:金坷垃传说》 Jul 26, 2019 FreeN/A (N/A)50,000 .. 100,0000%00:00 (00:00)小闲小闲
126 Gythol Granditti: The Crypt of Darkness Jul 19, 2019 FreeN/A (N/A)20,000 .. 50,0000%00:00 (00:00)GZ StormGZ Storm
127 Conqueror's Blade May 30, 2019 FreeN/A (N/A)2,000,000 .. 5,000,0002.16%01:22 (01:08)Booming TechMY.GAMES
128 Goblin Squad - Total Division May 10, 2019 N/AN/A (N/A)0 .. 20,0000%00:00 (00:00)Event Horizon Studios34BigThings srl
129 Margonem Feb 20, 2019 FreeN/A (N/A)20,000 .. 50,0000%00:00 (00:00)GarmoryGarmory
130 Age of Fear: The Free World Jan 18, 2019 FreeN/A (N/A)100,000 .. 200,0000%00:00 (00:00)Leslaw SliwkoAge of Fear
131 Chaordic Dec 17, 2018 FreeN/A (N/A)0 .. 20,0000%00:00 (00:00)Artepi CorporationArtepi Corporation
132 Find & Destroy: Tank Strategy Jun 12, 2018 FreeN/A (N/A)20,000 .. 50,0000%00:00 (00:00)mPower Games StudiomPower Games Studio
133 Tactical Monsters Rumble Arena Jan 31, 2018 FreeN/A (N/A)500,000 .. 1,000,0000%00:00 (00:00)Camex GamesCamex Games
134 Clarent Saga: Tactics Sep 25, 2017 FreeN/A (N/A)0 .. 20,0000%00:00 (00:00)David NguyenDavid Nguyen
135 Warbands: Bushido Sep 15, 2017 FreeN/A (N/A)100,000 .. 200,0000%00:00 (00:00)Red Unit StudiosRed Unit Studios
136 Heroes Tactics May 24, 2017 N/AN/A (N/A)100,000 .. 200,0000%00:00 (00:00)Camex GamesCamex Games
137 Dragon Awaken Jan 3, 2017 FreeN/A (N/A)20,000 .. 50,0000%00:00 (00:00)Game HollywoodGlobal Genom Corporate
138 Heroes Must Die Jul 15, 2016 FreeN/A (N/A)0 .. 20,0000%00:00 (00:00)Heroic GamesHeroic Games
139 Forge of Gods (RPG) May 6, 2016 N/AN/A (N/A)500,000 .. 1,000,0000%00:00 (00:00)Panoramik IncPanoramik Inc
140 Labyrinth Mar 7, 2016 N/AN/A (N/A)50,000 .. 100,0000%00:00 (00:00)Free Range GamesFree Range Games
141 NAVYFIELD Mar 18, 2000 N/AN/A (N/A)200,000 .. 500,0000%00:00 (00:00)SDEnterNETNaiadgames
142 God Souls Dec 1, 2022 $3.39N/A (N/A)0 .. 20,0000%00:00 (00:00)苏州天魂网络科技股份有限公司盤古數位娛樂有限公司
143 Marvel's Midnight Suns Dec 1, 2022 $59.99N/A (N/A)0 .. 20,0000%00:00 (00:00)Firaxis Games2K
144 Female Prison Nov 25, 2022 $4.99N/A (N/A)0 .. 20,0000%00:00 (00:00)MCGameMCGame
145 Boat Train Nov 25, 2022 $0.99N/A (N/A)20,000 .. 50,0000%00:00 (00:00)Monkey Barrel Games, INCMonkey Barrel Games, INC
146 Volley Court Nov 25, 2022 $5.99N/A (N/A)0 .. 20,0000%00:00 (00:00)多巴胺军火商多巴胺军火商
147 Furry Killer Nov 19, 2022 $29.99N/A (N/A)20,000 .. 50,0000%00:00 (00:00)SujikoGigantGame-A
148 拯救公主-宿命的破除 Nov 18, 2022 $5.99N/A (N/A)0 .. 20,0000%00:00 (00:00)骰子游戏骰子游戏
149 Oakenfold Nov 17, 2022 $19.99N/A (N/A)0 .. 20,0000%00:00 (00:00)Rutger van DijkStudio Taghua
150 Monochrome Mobius: Rights and Wrongs Forgotten Nov 16, 2022 $59.99N/A (N/A)0 .. 20,0000%00:00 (00:00)AQUAPLUSDMM GAMES, Shiravune
151 Touhou: Dreamland of Infinity Nov 15, 2022 $19.99N/A (N/A)0 .. 20,0000%00:00 (00:00)Purple猫 StudioPurple猫 Studio
152 Tactics Ogre: Reborn Nov 11, 2022 $49.99N/A (N/A)50,000 .. 100,00033.33%08:37 (05:41)Square EnixSquare Enix
153 I.D.F.K. Nov 9, 2022 $9.99N/A (N/A)0 .. 20,0000%00:00 (00:00)Phoenix Gaming StudiosPhoenix Gaming Studios
154 Kaiju Klash Nov 8, 2022 $4.99N/A (N/A)0 .. 20,0000%00:00 (00:00)McCollum GamesMcCollum Games
155 Timewreck Tales: A Rogue RPG Nov 7, 2022 $19.99N/A (N/A)20,000 .. 50,0000%00:00 (00:00)Second Pass StudiosSecond Pass Studios
156 Juno 06 Nov 4, 2022 $9.99N/A (N/A)0 .. 20,0000%00:00 (00:00)IllunsoftIllunsoft
157 TFM: The First Men Nov 2, 2022 $24.99N/A (N/A)20,000 .. 50,0000%00:00 (00:00)Gathering TreeGathering Tree
158 建安外史 The Tales of Jian An Nov 1, 2022 $17.99N/A (N/A)0 .. 20,0000%00:00 (00:00)开翼网络BD Games
159 Pawsecuted Nov 1, 2022 $9.99N/A (N/A)0 .. 20,0000%00:00 (00:00)Poking Water GamesPoking Water Games
160 Meliora Oct 31, 2022 $9.99N/A (N/A)20,000 .. 50,0000%00:00 (00:00)Draco GuardDraco Guard
161 GENIUS VS ANTICHRIST 1 Oct 28, 2022 $2.99N/A (N/A)0 .. 20,0000%00:00 (00:00)WFG STUDIOWFG STUDIO
162 Live by the Sword: Tactics Oct 28, 2022 $24.99N/A (N/A)0 .. 20,0000%00:00 (00:00)Labrador Studios
163 Relayer Advanced Oct 26, 2022 $49.99N/A (N/A)0 .. 20,0000%00:00 (00:00)DRAGAMI GAMES, LTD.DRAGAMI GAMES, LTD.
164 Jurassic Clans Oct 21, 2022 $9.99N/A (N/A)0 .. 20,0000%00:00 (00:00)GoldenGod GamesGoldenGod Games
165 Elemental War: Dawn of the Crystals Oct 20, 2022 $1.99N/A (N/A)0 .. 20,0000%00:00 (00:00)Crystalia LotusCrystalia Lotus
166 Of Blades & Tails Oct 19, 2022 $12.99N/A (N/A)20,000 .. 50,0000%00:00 (00:00)Felix LaukelPineapple Works
167 Oathbreakers Oct 18, 2022 $19.99N/A (N/A)0 .. 20,0000%00:00 (00:00)Warcrown EntertainmentWarcrown Entertainment
168 Wormhole Adventurer Oct 14, 2022 $5.99N/A (N/A)0 .. 20,0000%00:00 (00:00)Lakea GamesLakea Games
169 Gnome Online Oct 14, 2022 $11.99N/A (N/A)20,000 .. 50,0000%00:00 (00:00)H-ProductionH-Production
170 Acretia - Guardians of Lian Oct 13, 2022 $19.99N/A (N/A)20,000 .. 50,0000%00:00 (00:00)Ozaak, inc.Ozaak, inc.
171 Sunday Gold Oct 13, 2022 $21.99N/A (N/A)0 .. 20,0000%00:00 (00:00)BKOM StudiosTeam17
172 Deadeye Deepfake Simulacrum Oct 13, 2022 $12.99N/A (N/A)0 .. 20,0000%00:00 (00:00)nodayshalleraseyounodayshalleraseyou
173 Tower of Darkness Oct 12, 2022 $10.99N/A (N/A)20,000 .. 50,0000%00:00 (00:00)Atelier ArcaneAtelier Arcane
174 The Blood Amulet Oct 9, 2022 $12.99N/A (N/A)20,000 .. 50,0000%00:00 (00:00)Martin Thomas FluryMartin Thomas Flury
175 Oath of Miko Oct 7, 2022 $3.99N/A (N/A)0 .. 20,0000%00:00 (00:00)PotSPotS
176 Purgatory Dungeoneer Oct 6, 2022 $9.99N/A (N/A)0 .. 20,0000%00:00 (00:00)Cannibal InteractiveStrange Scaffold
177 荆轲新传(重制版) Oct 1, 2022 $4.99N/A (N/A)0 .. 20,0000%00:00 (00:00)艾露比工作室艾露比工作室
178 吞食天地2022 Sep 30, 2022 $19.99N/A (N/A)20,000 .. 50,0000%00:00 (00:00)FC MakerFC Maker
179 梦魇:无归 Nightmare without return Sep 30, 2022 $6.99N/A (N/A)20,000 .. 50,0000%00:00 (00:00)青衣工作室青衣工作室
180 Click To Sail Sep 29, 2022 $1.99N/A (N/A)0 .. 20,0000%00:00 (00:00)EdFarageEdFarage
181 活字引擎 Sep 29, 2022 $13.99N/A (N/A)0 .. 20,0000%00:00 (00:00)狸子Neazle狸子Neazle
182 War Obelisks Sep 29, 2022 $0.49N/A (N/A)0 .. 20,0000%00:00 (00:00)My Way GamesMy Way Games
183 The Original Island Sep 29, 2022 $15.99N/A (N/A)0 .. 20,0000%00:00 (00:00)泉州市兰梦网络科技中心(有限合伙)泉州市兰梦网络科技中心(有限合伙)
184 Dawn of Kagura: Maika's Story - The Dragon's Wrath Sep 29, 2022 $19.99N/A (N/A)0 .. 20,0000%00:00 (00:00)Debonosu WorksShiravune
185 Athereon: Advent I Sep 28, 2022 $24.99N/A (N/A)0 .. 20,0000%00:00 (00:00)ARCHITEERARCHITEER
186 Beneath the Mountain Sep 27, 2022 $24.99N/A (N/A)50,000 .. 100,0000%00:00 (00:00)Omnis Rector StudiosGameclaw Studio
187 The DioField Chronicle Sep 22, 2022 $59.99N/A (N/A)20,000 .. 50,0000%00:00 (00:00)Square Enix, LANCARSE Ltd.Square Enix
188 War of Wizards Sep 21, 2022 $19.99N/A (N/A)0 .. 20,0000%00:00 (00:00)Arcane Miracle EntertainmentArcane Miracle Entertainment
189 Stones Keeper Sep 15, 2022 $16.99N/A (N/A)0 .. 20,0000%00:00 (00:00)SK TeamValkyrie Initiative
190 Absolute Tactics: Daughters of Mercy Sep 15, 2022 $24.99N/A (N/A)50,000 .. 100,0000%00:00 (00:00)Curious FateAkupara Games
191 Grid Force - Mask Of The Goddess Sep 15, 2022 $24.99N/A (N/A)0 .. 20,0000%00:00 (00:00)Dreamnauts Studios
192 VARIOUS DAYLIFE Sep 13, 2022 $28.99N/A (N/A)0 .. 20,0000%00:00 (00:00)Square Enix, DOKIDOKI GROOVE WORKSSquare Enix
193 Idle Vikings Clicker Sep 12, 2022 $1.99N/A (N/A)0 .. 20,0000%00:00 (00:00)PaulArtPaulArt
194 Mutant Meltdown Sep 9, 2022 $9.99N/A (N/A)0 .. 20,0000%00:00 (00:00)GoldenGod GamesGoldenGod Games
195 Legend of Snake Sep 7, 2022 FreeN/A (N/A)0 .. 20,0000%00:00 (00:00)YunkaiYunkai
196 Adventure Academia: The Fractured Continent Sep 7, 2022 $39.99N/A (N/A)0 .. 20,0000%00:00 (00:00)ACQUIRE Corp.ACQUIRE Corp.
197 Circus Electrique Sep 6, 2022 $19.99N/A (N/A)0 .. 20,0000%00:00 (00:00)Zen StudiosSaber Interactive
198 Invader TD Sep 5, 2022 $4.99N/A (N/A)0 .. 20,0000%00:00 (00:00)Creativer Game StudioCreativer Game Studio
199 Heroes of Time 2 - Aizack's Return Sep 1, 2022 $4.99N/A (N/A)20,000 .. 50,0000%00:00 (00:00)MetthinkMetthink Productions
200 Legacy of Sin blood oath Sep 1, 2022 $19.99N/A (N/A)0 .. 20,0000%00:00 (00:00)Absolute Power Game Studio, https://absolutepowergamestudio.com/Absolute Power Game Studio, https://absolutepowergamestudio.com/
201 The Dragoness: Command of the Flame Sep 1, 2022 $19.99N/A (N/A)100,000 .. 200,0000%00:00 (00:00)Crazy Goat GamesPQube
202 Crossroads of Helmia Aug 31, 2022 $1.99N/A (N/A)20,000 .. 50,0000%00:00 (00:00)Filip ErikssonFilip Eriksson
203 Rhapsody: A Musical Adventure Aug 30, 2022 $19.99N/A (N/A)0 .. 20,0000%00:00 (00:00)Nippon Ichi Software, Inc., Engine Software BVNIS America, Inc.
204 La Pucelle: Ragnarok Aug 30, 2022 $19.99N/A (N/A)20,000 .. 50,0000%00:00 (00:00)Nippon Ichi Software, Inc., Engine Software BVNIS America, Inc.
205 Magicians And Monsters Aug 28, 2022 $5.99N/A (N/A)20,000 .. 50,0000%00:00 (00:00)呜噜噜游戏呜噜噜游戏
206 Dice vs Dice Aug 25, 2022 $4.99N/A (N/A)0 .. 20,0000%00:00 (00:00)CodingApe GamesVulpis Yazilim
207 Earthling's Undertaking Aug 25, 2022 $15.99N/A (N/A)50,000 .. 100,0000%00:00 (00:00)Masses StudioIndieArk
208 Conquest Emperor Aug 24, 2022 $0.99N/A (N/A)0 .. 20,0000%00:00 (00:00)LSP GAMELSP GAME
209 Queen's Wish 2: The Tormentor Aug 23, 2022 $24.99N/A (N/A)0 .. 20,0000%00:00 (00:00)Spiderweb SoftwareSpiderweb Software
210 Warriors of the Nile 2 Aug 23, 2022 $14.99N/A (N/A)50,000 .. 100,0000%00:00 (00:00)Stove StudioGamera Games
211 Tales of Tarium: Awakening from the Ashes Aug 19, 2022 $14.99N/A (N/A)20,000 .. 50,0000%00:00 (00:00)Paper Board StudiosPaper Board Studios
212 Far Away From Home Aug 18, 2022 $19.99N/A (N/A)0 .. 20,0000%00:00 (00:00)Matthew WongMatthew Wong
213 Anvil Life Aug 17, 2022 $2.99N/A (N/A)50,000 .. 100,0000%00:00 (00:00)Emre BulutEmre Bulut
214 Touhou: Lost Branch of Legend Aug 17, 2022 $29.99N/A (N/A)0 .. 20,0000%00:00 (00:00)Alioth StudioAlioth Studio
215 Vesper: Ether Saga - Episode 1 Aug 16, 2022 $17.99N/A (N/A)20,000 .. 50,0000%00:00 (00:00)Sylvain Harlaut, JeremySylvain Harlaut
216 Backpack Hero Aug 15, 2022 $16.99N/A (N/A)100,000 .. 200,00016.67%05:31 (03:40)JaspelJaspel, IndieArk, Different Tales
217 Gears of Phantasm: Destiny Tailored(Act I) Aug 15, 2022 $4.99N/A (N/A)20,000 .. 50,0000%00:00 (00:00)Ghost in the CogwheelsPhantom Production Set
218 Super Bullet Break Aug 12, 2022 $19.99N/A (N/A)0 .. 20,0000%00:00 (00:00)BeXide Inc.PQube
219 Idle Hero Aug 11, 2022 $1.99N/A (N/A)0 .. 20,0000%00:00 (00:00)PaulArtPaulArt
220 骸亡禁决:Skeleton King Aug 11, 2022 $1.99N/A (N/A)50,000 .. 100,0000%00:00 (00:00)古德模型, goodmoxing古德模型, goodmoxing
221 Revenge of the Orcs: Flag of Conquest Aug 11, 2022 $14.99N/A (N/A)0 .. 20,0000%00:00 (00:00)DieselmineShiravune
222 Carrier Commander Aug 10, 2022 $15.99N/A (N/A)0 .. 20,0000%00:00 (00:00)ssss
223 Tyrant's Blessing Aug 8, 2022 $19.99N/A (N/A)0 .. 20,0000%00:00 (00:00)Mercury Game StudioFreedom Games
224 Legend of Zero Aug 4, 2022 FreeN/A (N/A)0 .. 20,0000%00:00 (00:00)YunkaiYunkai
225 江湖群雄传 Aug 4, 2022 $9.99N/A (N/A)0 .. 20,0000%00:00 (00:00)黑白牛游戏黑白牛游戏
226 SharkDrag Episode 5: Uniting the 5 Kingdoms Aug 4, 2022 $10.99N/A (N/A)0 .. 20,0000%00:00 (00:00)SharkDracula IncorporatedSharkDracula Incorporated
227 Vanaris Tactics Aug 4, 2022 $9.99N/A (N/A)20,000 .. 50,0000%00:00 (00:00)Matheus ReisToge Productions
228 Aznak Aug 3, 2022 $5.99N/A (N/A)0 .. 20,0000%00:00 (00:00)Daniel McDonaldDaniel McDonald
229 Supernova Tactics Aug 1, 2022 $14.99N/A (N/A)0 .. 20,0000%00:00 (00:00)Peepod Inc.Peepod Inc.
230 Empire of Empires Jul 29, 2022 $0.38N/A (N/A)0 .. 20,0000%00:00 (00:00)Atomic Fabrik, Cristian ManolachiAtomic Fabrik, Cristian Manolachi
231 Ruadh: Warbands Jul 29, 2022 $8.99N/A (N/A)0 .. 20,0000%00:00 (00:00)Sorcerers LabSorcerers Lab
232 Restart your life Adventures of Tainuote Jul 28, 2022 $1.99N/A (N/A)0 .. 20,0000%00:00 (00:00)Clock in dreamClock in dream
233 Vestaria Saga II: The Sacred Sword of Silvanister Jul 28, 2022 $19.99N/A (N/A)0 .. 20,0000%00:00 (00:00)Vestaria ProjectDANGEN Entertainment, Gamera Games
234 World of Haiku Jul 22, 2022 $24.99N/A (N/A)20,000 .. 50,0000%00:00 (00:00)Haiku, IncHaiku, Inc
235 Blacken Slash Jul 22, 2022 $9.99N/A (N/A)0 .. 20,0000%00:00 (00:00)ehmprahehmprah
236 GearHead Caramel Jul 21, 2022 $9.99N/A (N/A)50,000 .. 100,0000%00:00 (00:00)Joseph HewittJoseph Warwick Victor Hewitt
237 RFVR Jul 17, 2022 $29.99N/A (N/A)20,000 .. 50,0000%00:00 (00:00)OMFGamesOMFGames
238 Warlordocracy Jul 16, 2022 $4.99N/A (N/A)0 .. 20,0000%00:00 (00:00)Brian Lancaster, Laughing Coyote SoftwareBrian Lancaster, Laughing Coyote Software
239 江湖百异图 Jul 15, 2022 $13.99N/A (N/A)20,000 .. 50,0000%00:00 (00:00)恒睿游戏恒睿游戏
240 Immortal Tactics: War of the Eternals Jul 15, 2022 $14.99N/A (N/A)0 .. 20,0000%00:00 (00:00)Kenisoft Game StudioKenisoft Game Studio
241 Legends of Kingdom Rush Jul 14, 2022 $14.99N/A (N/A)50,000 .. 100,00025%00:04 (00:02)Ironhide Game StudioIronhide Game Studio
242 Tilefinder Jul 12, 2022 $11.99N/A (N/A)20,000 .. 50,0000%00:00 (00:00)Dave DoubleeGriffincraft
243 传颂的种族 The Celebrated Race Jul 11, 2022 $2.99N/A (N/A)20,000 .. 50,0000%00:00 (00:00)白胖的老猫 OldCat白胖的老猫 OldCat
244 Castle Greyrot Jul 10, 2022 $4.99N/A (N/A)0 .. 20,0000%00:00 (00:00)sawworm Gamessawworm Games
245 Kilta Jul 10, 2022 $12.99N/A (N/A)0 .. 20,0000%00:00 (00:00)myTrueSoundmyTrueSound
246 Kenomaze Jul 8, 2022 $199.99N/A (N/A)0 .. 20,0000%00:00 (00:00)RaphaelRaphael
247 Tower Defender VR: Last Adventure Jul 8, 2022 $19.99N/A (N/A)0 .. 20,0000%00:00 (00:00)Suplife GamesSuplife Games
248 Starting Life In Another World Naked Jul 2, 2022 $19.99N/A (N/A)20,000 .. 50,0000%00:00 (00:00)AsGLeague StudiosAsGLeague Studios
249 That Castle Jun 30, 2022 $6.99N/A (N/A)20,000 .. 50,0000%00:00 (00:00)Jota14KJota14K
250 The Galactic Junkers Jun 30, 2022 $16.99N/A (N/A)0 .. 20,0000%00:00 (00:00)Evil Twin ArtworksGreen Man Gaming Publishing
251 Disgaea 6 Complete Jun 28, 2022 $69.99N/A (N/A)0 .. 20,0000%00:00 (00:00)Nippon Ichi Software, Inc.NIS America, Inc.
252 Cube Decider Jun 23, 2022 $3.99N/A (N/A)0 .. 20,0000%00:00 (00:00)DillyFrameDillyFrame
253 Lord of Darkness: Prologue Jun 21, 2022 $0.99N/A (N/A)0 .. 20,0000%00:00 (00:00)Pixel Lion StudiosPixel Lion Studios
254 Bargue Jun 17, 2022 $4.99N/A (N/A)0 .. 20,0000%00:00 (00:00)Evenmore GamesEvenmore Games
255 Super Stupid Game Jun 17, 2022 $1.99N/A (N/A)0 .. 20,0000%00:00 (00:00)JRPG.NovelsJRPG.Novels
256 Code 3: Police Response Jun 15, 2022 $14.99N/A (N/A)0 .. 20,0000%00:00 (00:00)109 Below109 Below
257 The Hand of Merlin Jun 14, 2022 $24.99N/A (N/A)20,000 .. 50,0000%00:00 (00:00)Room-C Games, CroteamVersus Evil
258 Keita's Adventures on the African Savannah Jun 12, 2022 $0.99N/A (N/A)0 .. 20,0000%00:00 (00:00)African boy Keita studioAfrican boy Keita studio
259 METAL MAX Xeno Reborn Jun 10, 2022 $39.99N/A (N/A)0 .. 20,0000%00:00 (00:00)24Frame,inc.PQube
260 COPS 2170 The Power of Law Jun 10, 2022 $11.99N/A (N/A)0 .. 20,0000%00:00 (00:00)GFIGFI
261 Symphony of War: The Nephilim Saga Jun 10, 2022 $19.99N/A (N/A)200,000 .. 500,0000%00:00 (00:00)Dancing Dragon GamesFreedom Games
262 Cool Game Jun 10, 2022 $0.99N/A (N/A)0 .. 20,0000%00:00 (00:00)Cool Games StudioCool Games Studio
263 EMPYRE: Dukes of the Far Frontier Jun 3, 2022 $19.99N/A (N/A)100,000 .. 200,0000%00:00 (00:00)Coin Operated GamesWork Shift Play Inc.
264 Tinyfolks Jun 1, 2022 $3.99N/A (N/A)50,000 .. 100,0000%00:00 (00:00)Pierre VandermaesenVANDERMAESEN GAMES
265 Grim Tranquility Jun 1, 2022 $14.99N/A (N/A)20,000 .. 50,0000%00:00 (00:00)Poorly Timed Games, LLCPoorly Timed Games, LLC
266 Dwerve May 31, 2022 $19.99N/A (N/A)0 .. 20,0000%00:00 (00:00)Half Human GamesHalf Human Games, Electronic Sheep Games
267 Swords and Sandals Immortals May 26, 2022 $17.99N/A (N/A)20,000 .. 50,00033.33%03:06 (03:06)Whiskeybarrel StudioseGames.com
268 虚幻宇宙:重启 May 23, 2022 $5.99N/A (N/A)50,000 .. 100,0000%00:00 (00:00)云瑞同志云瑞同志
269 Ninja Village May 22, 2022 $8.99N/A (N/A)0 .. 20,0000%00:00 (00:00)Kairosoft Co.,LtdKairosoft Co.,Ltd
270 Maroon Berets: 2030 May 19, 2022 $7.99N/A (N/A)20,000 .. 50,0000%00:00 (00:00)Maroon Berets: 2030Maroon Berets: 2030
271 封妖录 May 18, 2022 $2.99N/A (N/A)0 .. 20,0000%00:00 (00:00)青灯独酌青灯独酌
272 GOC Royale May 18, 2022 $11.99N/A (N/A)0 .. 20,0000%00:00 (00:00)Game of CardsGame of Cards
273 Ralph's party RPG May 17, 2022 $4.99N/A (N/A)50,000 .. 100,0000%00:00 (00:00)Samuvt2Samuvt2
274 Aurelia: Stellar Arising May 16, 2022 $2.99N/A (N/A)0 .. 20,0000%00:00 (00:00)A Stormy View Interactive LLCA Stormy View Interactive LLC
275 风墓战记 May 15, 2022 $0.99N/A (N/A)20,000 .. 50,0000%00:00 (00:00)DogShitStudioDogShitStudio
276 StressTest May 14, 2022 $4.99N/A (N/A)20,000 .. 50,0000%00:00 (00:00)FareedBhagwansingh, FlgamingFareed Bhagwansingh
277 Scholar May 13, 2022 $6.99N/A (N/A)0 .. 20,0000%00:00 (00:00)cosmic_dustcosmic_dust
278 Songs of Conquest May 10, 2022 $20.09N/A (N/A)100,000 .. 200,0000%00:00 (00:00)LavapotionCoffee Stain Publishing
279 Valley Knights May 6, 2022 FreeN/A (N/A)0 .. 20,0000%00:00 (00:00)Long Road GamesLong Road Games
280 Yaengard May 5, 2022 $24.99N/A (N/A)0 .. 20,0000%00:00 (00:00)Planeshift InteractivePlaneshift Interactive
281 The Revenge of Mr.Samuel May 4, 2022 $0.99N/A (N/A)20,000 .. 50,0000%00:00 (00:00)Babbosa StudiosBabbosa Studios
282 Age of Grit May 3, 2022 $14.99N/A (N/A)0 .. 20,0000%00:00 (00:00)IQ SoupIQ Soup
283 流放之域 May 1, 2022 $1.99N/A (N/A)0 .. 20,0000%00:00 (00:00)利贝尔村夫利贝尔村夫
284 Dungeon Reels Tactics May 1, 2022 $14.99N/A (N/A)0 .. 20,0000%00:00 (00:00)Grandma's Basement GamesGrandma's Basement Games
285 DUST - A Post Apocalyptic RPG May 1, 2022 $5.99N/A (N/A)20,000 .. 50,0000%00:00 (00:00)SEGEDI INC.SEGEDI INC.
286 Burning Faith Apr 29, 2022 $14.99N/A (N/A)20,000 .. 50,0000%00:00 (00:00)War Cry StudiosAldorlea Games
287 Kaiju Wars Apr 28, 2022 $19.99N/A (N/A)20,000 .. 50,00025%00:08 (00:02)Foolish Mortals Games, Michael LongFoolish Mortals Games
288 Dungeon Rummage - Tiqee's Escape Apr 28, 2022 $2.99N/A (N/A)0 .. 20,0000%00:00 (00:00)Simple GamingSimple Gaming
289 King Arthur: Knight's Tale Apr 26, 2022 $44.99N/A (N/A)100,000 .. 200,0000%00:00 (00:00)NeocoreGamesNeocoreGames
290 鬥犬 Dog Fighting Apr 24, 2022 $4.99N/A (N/A)0 .. 20,0000%00:00 (00:00)LivelyO2LivelyO2
291 The Eternal Battlefields Apr 23, 2022 $3.99N/A (N/A)0 .. 20,0000%00:00 (00:00)YAK GAMESYAK GAMES
292 Kuggs Apr 22, 2022 $0.99N/A (N/A)20,000 .. 50,0000%00:00 (00:00)Forrest PowellForrest Powell
293 Unconventional Warfare Apr 21, 2022 $9.99N/A (N/A)0 .. 20,0000%00:00 (00:00)Nightlife StrangersNightlife Strangers
294 The Iron Oath Apr 19, 2022 $19.99N/A (N/A)100,000 .. 200,0000%00:00 (00:00)Curious Panda GamesHumble Games
295 Daldos Apr 18, 2022 $7.99N/A (N/A)0 .. 20,0000%00:00 (00:00)Vanaheim TeamVanaheim Team
296 Enemy Engaged 2: Desert Operations Apr 18, 2022 $1.99N/A (N/A)20,000 .. 50,0000%00:00 (00:00)G2 GamesStrategy First
297 S E V E R A N C E Apr 16, 2022 $1.99N/A (N/A)200,000 .. 500,0000%00:00 (00:00)Polybit_GamePolybit_Game
298 Paths & Danger Apr 15, 2022 $9.99N/A (N/A)0 .. 20,0000%00:00 (00:00)GoldenGod GamesGoldenGod Games
299 Zoo Tales Apr 14, 2022 $9.99N/A (N/A)0 .. 20,0000%00:00 (00:00)Soein Studio, ChiEn, 十六椰子Soein Studio, ChiEn
300 Woods of Death 2 Apr 8, 2022 $4.99N/A (N/A)0 .. 20,0000%00:00 (00:00)Michael J WoodMichael J Wood
301 Circle Empires Tactics Apr 7, 2022 $14.99N/A (N/A)20,000 .. 50,0000%00:00 (00:00)LuminousIceberg Interactive
302 Outbreak: Contagious Memories Apr 6, 2022 $7.49N/A (N/A)0 .. 20,0000%00:00 (00:00)Dead Drop Studios LLCDead Drop Studios LLC
303 Police Response VR : Disturbance Apr 6, 2022 $4.99N/A (N/A)0 .. 20,0000%00:00 (00:00)Caltain VR LtdCaltain VR Ltd
304 Healing Simulator Apr 5, 2022 $4.99N/A (N/A)0 .. 20,0000%00:00 (00:00)Jens RoderusJens Roderus
305 The Book of the Game (Adventures in Leman) Apr 1, 2022 $24.99N/A (N/A)0 .. 20,0000%00:00 (00:00)MDH SoftwareMDH Software
306 Agent Roswell : Tactics Apr 1, 2022 $5.99N/A (N/A)0 .. 20,0000%00:00 (00:00)Blue Horizon Studios LtdBlue Horizon Studios Ltd
307 战棋三国英雄 Apr 1, 2022 $16.99N/A (N/A)0 .. 20,0000%00:00 (00:00)Dreamers StudioDreamers Studio
308 Grim Quest - Old School RPG Apr 1, 2022 $7.99N/A (N/A)0 .. 20,0000%00:00 (00:00)MonomythMonomyth
309 Samurai(The Rise Of Warrior)- 武士の台頭 Mar 31, 2022 $7.99N/A (N/A)0 .. 20,0000%00:00 (00:00)RABIE MOUNTHER TURKI HADDADJESUS LOVERS
310 Sweet Surge Mar 30, 2022 $3.99N/A (N/A)0 .. 20,0000%00:00 (00:00)Chocolate Ship GamesChocolate Ship Games
311 Tavolga-12 Mar 29, 2022 $14.99N/A (N/A)0 .. 20,0000%00:00 (00:00)Two DogsTwo Dogs
312 Knights of the Chalice 2 Mar 25, 2022 $44.99N/A (N/A)0 .. 20,0000%00:00 (00:00)Heroic Fantasy Games Dot ComHeroic Fantasy Games Dot Com
313 执剑九霄 Mar 24, 2022 $3.5N/A (N/A)100,000 .. 200,0000%00:00 (00:00)K.Kaiser's Game StudioK.Kaiser's Game Studio
314 PARTY RUSH!! Mar 23, 2022 $9.99N/A (N/A)200,000 .. 500,0000%00:00 (00:00)SECHANCREST
315 Hate Free Heroes Tactics: Strategy Building MMO Mar 22, 2022 $14.99N/A (N/A)0 .. 20,0000%00:00 (00:00)Hate Free HeroesHate Free Heroes
316 I Am Gangster Mar 18, 2022 $3.99N/A (N/A)0 .. 20,0000%00:00 (00:00)ThisisdemoThisisdemo
317 Royal Frontier Mar 18, 2022 $6.99N/A (N/A)0 .. 20,0000%00:00 (00:00)WoblywareRatalaika Games S.L.
318 Black Geyser: Couriers of Darkness Mar 17, 2022 $29.99N/A (N/A)50,000 .. 100,0000%00:00 (00:00)GrapeOcean TechnologiesV Publishing, GrapeOcean Technologies
319 World Titans War Mar 17, 2022 $22.99N/A (N/A)20,000 .. 50,0000%00:00 (00:00)PROMVI GAMESPROMVI GAMES
320 Escape from Cronos X Mar 15, 2022 $4.99N/A (N/A)0 .. 20,0000%00:00 (00:00)Request LogicRequest Logic AS (Ltd)
321 RoguePG Mar 15, 2022 $0.99N/A (N/A)0 .. 20,0000%00:00 (00:00)Tayler TolmanTMT Studios
322 Telepath Tactics Liberated Mar 14, 2022 $24.99N/A (N/A)0 .. 20,0000%00:00 (00:00)Sinister DesignSinister Design
323 Elteria Hunter Mar 10, 2022 $8.99N/A (N/A)20,000 .. 50,0000%00:00 (00:00)CH-Gaming StudioCH-Gaming Studio
324 Quickflash - A Fabula Story Mar 9, 2022 $5.99N/A (N/A)0 .. 20,0000%00:00 (00:00)4E Game Studio4E Publisher
325 Hidden Post-Apocalyptic Top-Down 3D Mar 9, 2022 $9.99N/A (N/A)20,000 .. 50,0000%00:00 (00:00)Top-Down GamesHede
326 Hidden Build Top-Down 3D Mar 8, 2022 $9.99N/A (N/A)20,000 .. 50,0000%00:00 (00:00)Top-Down GamesHede
327 Barry of Wrath Mar 4, 2022 $14.99N/A (N/A)0 .. 20,0000%00:00 (00:00)Wolfs Moon StudiosWolfs Moon Studios
328 Legend of Ixtona Mar 3, 2022 $14.99N/A (N/A)0 .. 20,0000%00:00 (00:00)WorldWideSoftwareKEMCO
329 Dark Dragonkin Mar 1, 2022 $9.99N/A (N/A)0 .. 20,0000%00:00 (00:00)TwintertainmentTwintertainment
330 Initium Legenda Feb 25, 2022 $4.99N/A (N/A)0 .. 20,0000%00:00 (00:00)LEGENDA Inc.LEGENDA Inc.
331 Moonbase Down Feb 22, 2022 $2.99N/A (N/A)0 .. 20,0000%00:00 (00:00)Advent RPGAdvent RPG
332 Plentypede Feb 22, 2022 $4.19N/A (N/A)0 .. 20,0000%00:00 (00:00)Favour Toys Studios, CRX EntertainmentFavour Toys Studios
333 El Mucho Feb 20, 2022 $7.99N/A (N/A)0 .. 20,0000%00:00 (00:00)Andreas DahmLobo Corp.
334 Cascade Tactics Feb 17, 2022 $7.99N/A (N/A)20,000 .. 50,0000%00:00 (00:00)Mythic Machine Software LLCMythic Machine Software LLC
335 PARACHUTER Feb 17, 2022 $1.99N/A (N/A)50,000 .. 100,0000%00:00 (00:00)XWZXWZ
336 Spelldrifter Feb 15, 2022 $19.99N/A (N/A)20,000 .. 50,0000%00:00 (00:00)Free Range GamesFree Range Games
337 Faye: A Tale of Shadow Feb 14, 2022 $19.99N/A (N/A)20,000 .. 50,0000%00:00 (00:00)Night Stroll StudioNight Stroll Studio
338 梅斯特姆 Feb 12, 2022 $11.99N/A (N/A)0 .. 20,0000%00:00 (00:00)Pyraminx SoftPyraminx Soft
339 Kings0 Feb 10, 2022 $0.99N/A (N/A)20,000 .. 50,0000%00:00 (00:00)RAD TeamRAD Team
340 幻梦之城(C T O D) Feb 10, 2022 $0.99N/A (N/A)0 .. 20,0000%00:00 (00:00)zhi wen zhangzhi wen zhang
341 Monsters and Weapons Feb 9, 2022 $4.99N/A (N/A)0 .. 20,0000%00:00 (00:00)Bocary StudiosBocary Studios
342 Sugar Story Feb 9, 2022 $2.99N/A (N/A)100,000 .. 200,0000%00:00 (00:00)Source Byte Sp. z o.o., Nikodem ŚwiderSource Byte Sp. z o.o.
343 西游戰棋(West Journey War) Feb 8, 2022 N/AN/A (N/A)0 .. 20,0000%00:00 (00:00)ZMEI StudioZMEI Studio
344 Spirit of Adventure Feb 12, 1991 $8.99N/A (N/A)200,000 .. 500,0000%00:00 (00:00)Attic Entertainment SoftwareUnique Games
345 King of Heroes Feb 3, 2022 $9.99N/A (N/A)0 .. 20,0000%00:00 (00:00)Paper Fan GamesPaper Fan Games
346 Nonstop Feb 1, 2022 $0.99N/A (N/A)0 .. 20,0000%00:00 (00:00)SensySensy
347 Rogue Dungeon Jan 28, 2022 $9.99N/A (N/A)0 .. 20,0000%00:00 (00:00)Cerberus Gate GamesCerberus Gate Games
348 Downfall of Krynto Jan 26, 2022 $5.99N/A (N/A)0 .. 20,0000%00:00 (00:00)Sloppy Joe StudiosSloppy Joe Studios
349 Reverie Knights Tactics Jan 25, 2022 $24.99N/A (N/A)20,000 .. 50,0000%00:00 (00:00)40 Giants EntertainmentFulqrum Publishing
350 Samurai Tactics Jan 24, 2022 $3.99N/A (N/A)20,000 .. 50,0000%00:00 (00:00)AzumaAzuma Soft
351 Mystery of Fortune 2 Refine Jan 24, 2022 N/AN/A (N/A)20,000 .. 50,0000%00:00 (00:00)Dotomchi Games Inc.Dotomchi Games Inc.
352 The Monster Breeder Jan 19, 2022 $19.99N/A (N/A)0 .. 20,0000%00:00 (00:00)Fantasy CreationsFantasy Creations
353 瀚辰书院 Jan 19, 2022 $2.99N/A (N/A)0 .. 20,0000%00:00 (00:00)炀艺科技炀艺科技
354 Lost Scavenger Jan 18, 2022 $14.99N/A (N/A)20,000 .. 50,0000%00:00 (00:00)RockbeeRockbee
355 Warspace Jan 17, 2022 $9.99N/A (N/A)100,000 .. 200,0000%00:00 (00:00)Real GamerReal Gamer
356 Stand Of Arms Jan 16, 2022 $6.99N/A (N/A)0 .. 20,0000%00:00 (00:00)XF GameXF Game
357 A Noite Sem Fim Jan 15, 2022 $5.99N/A (N/A)50,000 .. 100,0000%00:00 (00:00)A GuildaA Guilda
358 Idle Calibur Jan 14, 2022 $7.99N/A (N/A)50,000 .. 100,0000%00:00 (00:00)绝汪DreamStep, 绝汪
359 Underground escape 地底逃生 Jan 14, 2022 $0.99N/A (N/A)0 .. 20,0000%00:00 (00:00)dongxujuandongxujuan
360 Mary Skelter 2 Jan 13, 2022 $34.99N/A (N/A)0 .. 20,0000%00:00 (00:00)Idea FactoryGhostlight LTD.
361 Hollow's Land Dec 23, 2014 $0.38N/A (N/A)50,000 .. 100,0000%00:00 (00:00)Relax MinimalismRelax Minimalism
362 Rising of the Moon - Part 1 Jan 7, 2022 $4.99N/A (N/A)20,000 .. 50,0000%00:00 (00:00)ValyutechnikValyutechnik
363 VenusBlood HOLLOW International Jan 6, 2022 $44.99N/A (N/A)20,000 .. 50,0000%00:00 (00:00)Ninetail, DualtailJAST USA, Kagura Games (Chinese Version)
364 封神榜2022 Jan 6, 2022 $9.99N/A (N/A)50,000 .. 100,0000%00:00 (00:00)FC MakerFC Maker
365 Galactic Dreams Jan 4, 2022 $4.99N/A (N/A)0 .. 20,0000%00:00 (00:00)Evolution VaultStrategy First
366 F-Rank hero story Jan 4, 2022 $10.99N/A (N/A)0 .. 20,0000%00:00 (00:00)Funny game studioFunny game studio
367 超越海盗 Dec 31, 2021 $1.99N/A (N/A)0 .. 20,0000%00:00 (00:00)四元方程四元方程
368 RED OPS ARCADE Dec 29, 2021 $2.99N/A (N/A)20,000 .. 50,0000%00:00 (00:00)RAIS Z.RAIDOKS GAMES
369 Watermelon Wars Dec 27, 2021 $1.99N/A (N/A)0 .. 20,0000%00:00 (00:00)SleepFly 睡神飞SleepFly 睡神飞
370 Precursors: Armored Angels Dec 27, 2021 $11.99N/A (N/A)20,000 .. 50,0000%00:00 (00:00)Artificial Worlds Ltd.Artificial Worlds Ltd.
371 Item synthesis and dungeon exploration Dec 21, 2021 $6.99N/A (N/A)0 .. 20,0000%00:00 (00:00)OikariBunchoOikariBuncho
372 Trials of Proelium Dec 16, 2021 $11.99N/A (N/A)20,000 .. 50,0000%00:00 (00:00)Retroactive FortRetroactive Fort
373 Toy War - Cannon Dec 15, 2021 $9.99N/A (N/A)0 .. 20,0000%00:00 (00:00)HedeHede
374 The Thorn of Warldia Dec 10, 2021 $1.99N/A (N/A)0 .. 20,0000%00:00 (00:00)WendtOnGamesWendtOnGames
375 World of Bärn Dec 9, 2021 $49.99N/A (N/A)0 .. 20,0000%00:00 (00:00)Ready To PlayReady To Play
376 Wolfstride Dec 7, 2021 $14.99N/A (N/A)20,000 .. 50,0000%00:00 (00:00)OTA IMON StudiosRaw Fury
377 Defenders Glory Dec 6, 2021 $9.99N/A (N/A)0 .. 20,0000%00:00 (00:00)Derek Eduardo GonçalvesLoris Studio
378 Miasma 2: Freedom Uprising Dec 3, 2021 $2.99N/A (N/A)100,000 .. 200,0000%00:00 (00:00)ESP GamesDavid Addis
379 Dragon Hunters Dec 3, 2021 $19.99N/A (N/A)100,000 .. 200,0000%00:00 (00:00)Sigonheart Games LLCSigonheart Games LLC
380 The Clockworker Dec 3, 2021 $1.99N/A (N/A)20,000 .. 50,0000%00:00 (00:00)Ixeria, MadBeeThe Broken Clock
381 Mechajammer Dec 2, 2021 $24.99N/A (N/A)50,000 .. 100,0000%00:00 (00:00)Whalenought StudiosModern Wolf
382 Wartales Dec 1, 2021 $34.99N/A (N/A)200,000 .. 500,0004.17%02:53 (00:57)Shiro GamesShiro Unlimited
383 Raptor Territory Nov 30, 2021 $0.99N/A (N/A)0 .. 20,0000%00:00 (00:00)RedClaw ProductionsRedClaw Productions
384 惊险极速 Nov 29, 2021 $6.99N/A (N/A)0 .. 20,0000%00:00 (00:00)个人个人
385 Heroes of Xanfurth Nov 25, 2021 FreeN/A (N/A)0 .. 20,0000%00:00 (00:00)Shatter Wing StudiosShatter Wing Studios
386 Sidequest Nov 22, 2021 $14.99N/A (N/A)0 .. 20,0000%00:00 (00:00)Angry-fromunAngry-fromun
387 The Missing Link Nov 22, 2021 $6.99N/A (N/A)0 .. 20,0000%00:00 (00:00)Caico Morais de BritoCaico Morais de Brito
388 ball heroes Nov 16, 2021 $9.99N/A (N/A)0 .. 20,0000%00:00 (00:00)Chengdu Haowanyou Technologies Co., LtdChengdu Haowanyou Technologies Co., Ltd
389 问道仙途2 Nov 12, 2021 $2.99N/A (N/A)0 .. 20,0000%00:00 (00:00)青灯独酌青灯独酌
390 SAD RPG: A Social Anxiety Role Playing Game Nov 11, 2021 $7.99N/A (N/A)20,000 .. 50,0000%00:00 (00:00)Evil Indie GamesEvil Indie Games
391 HeroBattle Nov 11, 2021 $2.99N/A (N/A)20,000 .. 50,0000%00:00 (00:00)XUZHOU GETAI TRADING CO. LTDXUZHOU GETAI TRADING CO. LTD
392 Wulin Chess Nov 9, 2021 $11.99N/A (N/A)20,000 .. 50,0000%00:00 (00:00)LameCat StudioEast2West Games
393 Lame Defenders Nov 8, 2021 $3.99N/A (N/A)0 .. 20,0000%00:00 (00:00)LameGamesLameGames
394 Star Shift Origins Nov 8, 2021 $6.39N/A (N/A)200,000 .. 500,0000%00:00 (00:00)Psychronic Game StudiosG-DEVS.com, Psychronic Games
395 Unveiled Nov 5, 2021 $1.99N/A (N/A)20,000 .. 50,0000%00:00 (00:00)AnotherIndieGameDevAnotherIndieGameDev
396 Void Eclipse Nov 3, 2021 $29.99N/A (N/A)0 .. 20,0000%00:00 (00:00)Tau Ceti StudiosTau Ceti Studios
397 The Lost King of Avallon Nov 2, 2021 $14.99N/A (N/A)0 .. 20,0000%00:00 (00:00)Freeline Games GmbHFreeline Games GmbH
398 Broken Betrayal Nov 2021 $10.99N/A (N/A)0 .. 20,0000%00:00 (00:00)AlphaOne GamesAlphaOne Games
399 Defend the Rook Oct 26, 2021 $17.99N/A (N/A)50,000 .. 100,0000%00:00 (00:00)One Up PlusGoblinz Publishing, Maple Whispering Limited
400 Feign Oct 23, 2021 $4.99N/A (N/A)100,000 .. 200,0009.09%00:01 (00:00)tenekekafalarstudiostenekekafalarstudios
401 制服少女 Oct 21, 2021 $0.99N/A (N/A)0 .. 20,0000%00:00 (00:00)小闲小闲
402 Human Madness Oct 21, 2021 $7.99N/A (N/A)0 .. 20,0000%00:00 (00:00)The OneThe One
403 Disciples: Liberation Oct 21, 2021 $39.99N/A (N/A)50,000 .. 100,0007.41%00:39 (00:26)Frima StudioKalypso Media
404 Spire of Sorcery Oct 21, 2021 $20N/A (N/A)20,000 .. 50,0000%00:00 (00:00)Charlie Oscar Lima Tango Interactive EntertainmentCharlie Oscar Lima Tango Interactive Entertainment
405 Legacy of Sin the father sacrifice Oct 20, 2021 $7.99N/A (N/A)0 .. 20,0000%00:00 (00:00)Absolute Power Game StudioAbsolute Power Game Studio
406 迅风的米斯特汀 Windy Mystletainn Oct 19, 2021 $0.49N/A (N/A)50,000 .. 100,0000%00:00 (00:00)索尼克冷笑黑妖
407 Delphyq Oct 19, 2021 $14.99N/A (N/A)100,000 .. 200,0000%00:00 (00:00)Dusk Wave Arts LLCDusk Wave Arts LLC
408 Fear Surrounds Oct 19, 2021 $7.99N/A (N/A)200,000 .. 500,0004.55%01:34 (00:31)SaltyEgg StudioYooreka Studio
409 Content Creator's Internet Adventure Oct 14, 2021 $4.99N/A (N/A)20,000 .. 50,0000%00:00 (00:00)James R TrimbleSaladite Games
410 Stolen Realm Oct 14, 2021 $19.99N/A (N/A)100,000 .. 200,0000%00:00 (00:00)Burst2Flame EntertainmentBurst2Flame Entertainment
411 Gladiator Guild Manager Oct 13, 2021 $7.99N/A (N/A)100,000 .. 200,0000%00:00 (00:00)Entertainment ForgeGrabTheGames, Gamera Games
412 Dungeon Deathball Oct 13, 2021 $11.99N/A (N/A)0 .. 20,0000%00:00 (00:00)Matt GlanvilleMatt Glanville
413 Grim Nights 2 - Realms Oct 12, 2021 $9.99N/A (N/A)0 .. 20,0000%00:00 (00:00)Edym PixelsEdym Pixels
414 Unionatic Oct 10, 2021 $9.99N/A (N/A)0 .. 20,0000%00:00 (00:00)BananaJellyBean StudiosBananaJellyBean Studios
415 Academy Quest | アカデミークエスト Oct 8, 2021 $13.99N/A (N/A)0 .. 20,0000%00:00 (00:00)つれづれつれづれ
416 Guile & Glory: Firstborn Oct 7, 2021 $9.99N/A (N/A)0 .. 20,0000%00:00 (00:00)Elston StudiosElston Studios
417 Eclipse Oct 7, 2021 $13.99N/A (N/A)100,000 .. 200,0000%00:00 (00:00)MadRockMadRock
418 Rescue Troopers Oct 5, 2021 $4.99N/A (N/A)0 .. 20,0000%00:00 (00:00)ssss
419 周松传 Oct 4, 2021 $2.99N/A (N/A)0 .. 20,0000%00:00 (00:00)周松传工作室周松传工作室
420 Angels vs Demons Oct 3, 2021 $9.99N/A (N/A)0 .. 20,0000%00:00 (00:00)wow wow Gameswow wow Games
421 WizardChess Oct 1, 2021 $9.99N/A (N/A)0 .. 20,0000%00:00 (00:00)TwoPM Studios2 Left Thumbs
422 Touhou Monster TD ~ 幻想乡妖怪塔防 Oct 1, 2021 $18.99N/A (N/A)50,000 .. 100,0000%00:00 (00:00)MyACG StudioMyACG Studio
423 Tomes and Quests: a Word RPG Sep 30, 2021 $9.99N/A (N/A)0 .. 20,0000%00:00 (00:00)Trailblazer GamesTrailblazer Games
424 西游记2021 Sep 30, 2021 $9.99N/A (N/A)50,000 .. 100,0000%00:00 (00:00)FC MakerFC Maker
425 The Handler of Dragons Sep 27, 2021 $11.99N/A (N/A)0 .. 20,0000%00:00 (00:00)Hi-Quality Jerzy CalinskiGolden Eggs Studio
426 Elementowers Sep 23, 2021 $12.99N/A (N/A)0 .. 20,0000%00:00 (00:00)Lemon SqueezyLemon Squeezy
427 Guild of Ascension Sep 21, 2021 $14.99N/A (N/A)0 .. 20,0000%00:00 (00:00)WhileOne ProductionsPID Games
428 Kingdom of Heroes Sep 20, 2021 $7.99N/A (N/A)0 .. 20,0000%00:00 (00:00)MoonlightGamesMoonlightGames
429 Everpixel Tactics Sep 17, 2021 $4.99N/A (N/A)20,000 .. 50,0000%00:00 (00:00)Doom Dino GamesDoom Dino Games
430 Mandinga - A Tale of Banzo Sep 17, 2021 $7.99N/A (N/A)20,000 .. 50,0000%00:00 (00:00)Uruca Game StudioUruca Game Studio
431 Grim wanderings 2 Sep 15, 2021 $5.99N/A (N/A)100,000 .. 200,0000%00:00 (00:00)Ellinia gamesEllinia games
432 Table of Tales: The Crooked Crown Sep 14, 2021 $19.99N/A (N/A)0 .. 20,0000%00:00 (00:00)Tin Man Games, Zero One StudioTin Man Games
433 ChibiClubTD Sep 14, 2021 $1.99N/A (N/A)0 .. 20,0000%00:00 (00:00)MHCMHC
434 Avalom: Ancestral Heroes Sep 13, 2021 $17.99N/A (N/A)0 .. 20,0000%00:00 (00:00)WAGNER ROCHAINDIE
435 Nilia Sep 12, 2021 $4.99N/A (N/A)20,000 .. 50,0000%00:00 (00:00)4 Hats4 Hats
436 Terrain of Magical Expertise Sep 9, 2021 $24.99N/A (N/A)20,000 .. 50,0000%00:00 (00:00)NEO-C Productions L.L.CFulqrum Publishing
437 Ark of Loif Sep 7, 2021 $19.84N/A (N/A)0 .. 20,0000%00:00 (00:00)1/2ofOctahedron1/2ofOctahedron
438 Hammerheart Sep 6, 2021 $10.99N/A (N/A)0 .. 20,0000%00:00 (00:00)Bennett FarmerBennett Farmer
439 Adventurers Guild Sep 6, 2021 $4.2N/A (N/A)20,000 .. 50,0000%00:00 (00:00)Game DeliveryGame Delivery
440 Shawarma or Shaverma Sep 4, 2021 $9.99N/A (N/A)50,000 .. 100,0000%00:00 (00:00)Stas Paty9mkinPiece Of Voxel
441 Heads Will Roll Sep 4, 2021 $4.99N/A (N/A)20,000 .. 50,0000%00:00 (00:00)1917 Studios1917 Studios
442 Office Strike War - Multiplayer Battle Royale Sep 2, 2021 $0.38N/A (N/A)0 .. 20,0000%00:00 (00:00)Bad Kids GamesAtomic Fabrik, Cristian Manolachi
443 Aurora - Hidden Colors Sep 2, 2021 $4.99N/A (N/A)100,000 .. 200,0000%00:00 (00:00)Aurora - Mídia & GamesAurora - Mídia & Games
444 Soul Nomad & the World Eaters Aug 31, 2021 $19.99N/A (N/A)20,000 .. 50,0000%00:00 (00:00)Nippon Ichi Software, Inc., CodeglueNIS America, Inc.
445 The Curse of Feldar Vale Aug 30, 2021 $4.49N/A (N/A)0 .. 20,0000%00:00 (00:00)Ian C PookPaphian Games
446 Three Fairies' Hoppin' Flappin' Great Journey! Aug 27, 2021 $17.99N/A (N/A)0 .. 20,0000%00:00 (00:00)yomogi_softPhoenixx Inc.
447 Captures Aug 26, 2021 $1.99N/A (N/A)0 .. 20,0000%00:00 (00:00)cosmic_dustcosmic_dust
448 Elmarion: the Lost Temple Aug 26, 2021 $14.99N/A (N/A)0 .. 20,0000%00:00 (00:00)Fleon GamesFleon Games
449 Der Geisterjäger / The Ghost Hunter Aug 26, 2021 $17.99N/A (N/A)0 .. 20,0000%00:00 (00:00)Graverobber FoundationGraverobber Foundation
450 Googass Aug 25, 2021 $1.99N/A (N/A)0 .. 20,0000%00:00 (00:00)Brewsterland StudiosBrewsterland Studios
451 Ultimate ADOM - Caverns of Chaos Aug 25, 2021 $9.99N/A (N/A)20,000 .. 50,0000%00:00 (00:00)Thomas Biskup, Jochen Terstiege, Krzysztof Dycha, Lucas Dieguez, Bastian von Gostomski, Carola Sochiera, Björn LoesingAssemble Entertainment, WhisperGames
452 King's Bounty II Aug 24, 2021 $15.99N/A (N/A)200,000 .. 500,0000%00:00 (00:00)Fulqrum GamesFulqrum Publishing, Prime Matter, 方块游戏 (China)
453 UFO vs Bikini Aug 23, 2021 $8.99N/A (N/A)0 .. 20,0000%00:00 (00:00)Xenon LuWELOVEBOT CO., LTD.
454 Station Commander Aug 23, 2021 $7.99N/A (N/A)50,000 .. 100,0000%00:00 (00:00)Ben Marks Game StudiosBen Marks Game Studios
455 LABYRINTH OF TOUHOU - GENSOKYO AND THE HEAVEN-PIERCING TREE Aug 23, 2021 $29.99N/A (N/A)20,000 .. 50,0000%00:00 (00:00)Nise-Eikoku Studio, CUBETYPECUBETYPE
456 Heroes of Yore Aug 23, 2021 $6.99N/A (N/A)0 .. 20,0000%00:00 (00:00)Vogel Vision LLCVogel Vision LLC
457 Project Martians Aug 22, 2021 $7.99N/A (N/A)0 .. 20,0000%00:00 (00:00)Stanislaw DevStanislaw Dev
458 Nayati River Aug 20, 2021 $9.49N/A (N/A)20,000 .. 50,0000%00:00 (00:00)Worlds To PlayWorlds To Play
459 Endorfire Tower Defense Aug 13, 2021 $9.99N/A (N/A)0 .. 20,0000%00:00 (00:00)The ZooThe Zoo
460 Bionite: Origins Aug 13, 2021 $11.99N/A (N/A)0 .. 20,0000%00:00 (00:00)Platoon StudiosPlatoon Studios
461 Dust to the End Aug 11, 2021 $11.99N/A (N/A)100,000 .. 200,0000%00:00 (00:00)Haojoy Game, Zjoy Game2P Games
462 The Last Hope: Zombie Defense TD Aug 10, 2021 $1.99N/A (N/A)0 .. 20,0000%00:00 (00:00)DUK GamesDUK Games
463 Sentinel: Cursed Knight Aug 10, 2021 $4.99N/A (N/A)100,000 .. 200,0000%00:00 (00:00)Sentinel StudiosSentinel Studios
464 团长别生气 Aug 5, 2021 N/AN/A (N/A)0 .. 20,0000%00:00 (00:00)掌烛文化掌烛文化
465 Man of the World Jul 13, 2022 $2.99N/A (N/A)0 .. 20,0000%00:00 (00:00)redduckstudioredduckstudio
466 GATE Jul 30, 2021 $4.99N/A (N/A)0 .. 20,0000%00:00 (00:00)Banshee CatBanshee Cat
467 Smithy Wars Jul 30, 2021 $3.99N/A (N/A)0 .. 20,0000%00:00 (00:00)Bigboot StudiosBigboot Studios
468 The Vagabond Emperor Jul 29, 2021 $19.99N/A (N/A)0 .. 20,0000%00:00 (00:00)WigglingEyebrowsWigglingEyebrows
469 RPG: Squad battle Jul 22, 2021 $0.49N/A (N/A)0 .. 20,0000%00:00 (00:00)Tero Lunkka, Valkeala SoftwareTero Lunkka
470 AirFighter Jul 20, 2021 $1.09N/A (N/A)0 .. 20,0000%00:00 (00:00)LTRG corp.khukhrovr
471 Renova Jul 20, 2021 $3.99N/A (N/A)0 .. 20,0000%00:00 (00:00)Teutonic GamesTeutonic Games
472 Tactical Vanguard Saga Jul 20, 2021 $4.99N/A (N/A)100,000 .. 200,0000%00:00 (00:00)Blacc Ski Weekend IndustriesBlacc Ski Weekend Industries
473 The Protagonist: EX-1 Jul 18, 2021 $13.99N/A (N/A)20,000 .. 50,0000%00:00 (00:00)3Mind Games3Mind Games
474 Pest Control Jul 15, 2021 $3.99N/A (N/A)0 .. 20,0000%00:00 (00:00)EON46Ritual Interactive
475 S.O.T.A 2 Jul 14, 2021 $4.99N/A (N/A)20,000 .. 50,0000%00:00 (00:00)S.O.T.A GamesS.O.T.A Games
476 There May Be Ninety-Nine Of Us, But We Have To Win In Ninety-Nine Turns! Jul 14, 2021 $3.99N/A (N/A)0 .. 20,0000%00:00 (00:00)Cannibal InteractiveCannibal Interactive
477 NEO: Commanders Jul 9, 2021 $4.99N/A (N/A)0 .. 20,0000%00:00 (00:00)SZEINERSZEINER
478 明明如月 Jul 2, 2021 $5.99N/A (N/A)0 .. 20,0000%00:00 (00:00)希言游戏希言游戏
479 Kuro Tactics Jul 1, 2021 $2.99N/A (N/A)20,000 .. 50,0000%00:00 (00:00)KurowareLLCKurowareLLC
480 Merge & Blade Jun 29, 2021 $5.99N/A (N/A)20,000 .. 50,0000%00:00 (00:00)Magic CubeMagic Cube
481 Mecha Tactics Jun 28, 2021 $3.99N/A (N/A)20,000 .. 50,0000%00:00 (00:00)Nullio GamesNullio Games
482 Eiyu*Senki Gold – A New Conquest Jun 25, 2021 $34.99N/A (N/A)20,000 .. 50,0000%00:00 (00:00)TencoJAST USA, Kagura Games (Chinese Localization)
483 Endless Love Jun 22, 2021 $24.99N/A (N/A)0 .. 20,0000%00:00 (00:00)玫瑰工作室玫瑰工作室
484 The Legends in Kylamar Jun 21, 2021 $7.99N/A (N/A)0 .. 20,0000%00:00 (00:00)Gamma Knight StudiosGamma Knight Studios
485 DREAM TIME Jun 18, 2021 $7.99N/A (N/A)0 .. 20,0000%00:00 (00:00)AI mainland Game studioAI mainland Game studio
486 Amneron's Legacy Jun 17, 2021 $8.99N/A (N/A)0 .. 20,0000%00:00 (00:00)Rythane (JRH)Rythane (JRH)
487 UFO2: Extraterrestrials Jun 15, 2021 $34.99N/A (N/A)0 .. 20,0000%00:00 (00:00)Chaos ConceptChaos Concept
488 The Girl Who Sees Jun 11, 2021 $8.99N/A (N/A)100,000 .. 200,0000%00:00 (00:00)InterIntellectus NFPInterIntellectus NFP
489 仙路志异 Jun 10, 2021 N/AN/A (N/A)0 .. 20,0000%00:00 (00:00)Big Flag StudioBig Flag Studio
490 Warlike Jun 10, 2021 $3.99N/A (N/A)20,000 .. 50,0000%00:00 (00:00)Peter KnakPeter Knak
491 Rise Eterna Jun 9, 2021 $19.99N/A (N/A)0 .. 20,0000%00:00 (00:00)Makee, Forever Entertainment S. A.Forever Entertainment S. A.
492 Defense Tower Simulator Jun 5, 2021 $1.99N/A (N/A)0 .. 20,0000%00:00 (00:00)CoolCraftGames CoolCraftGames
493 The Handbook Jun 4, 2021 $5.99N/A (N/A)20,000 .. 50,0000%00:00 (00:00)Ivories StudiosIvories Studios
494 The Last Spell Jun 3, 2021 $19.99N/A (N/A)500,000 .. 1,000,0000%00:00 (00:00)Ishtar GamesThe Arcade Crew, Gamera Games, Dangen Entertainment
495 Infiltration: Alone in Combat Jun 2, 2021 $1.99N/A (N/A)20,000 .. 50,0000%00:00 (00:00)Elvio LujánElvio Luján
496 リトルハーツ Dec 2, 2022 $12.99N/A (N/A)0 .. 20,0000%00:00 (00:00)ゆーぎりゆーぎり
497 Love n War: Warlord by Chance May 28, 2021 $2.99N/A (N/A)50,000 .. 100,0000%00:00 (00:00)Reborn EntertainmentReborn Entertainment
498 Album Corvus May 21, 2021 $12.99N/A (N/A)0 .. 20,0000%00:00 (00:00)Devil's Dozen GamesDevil's Dozen Games
499 Rise of the Slime May 20, 2021 $14.99N/A (N/A)0 .. 20,0000%00:00 (00:00)Bunkovsky Games
500 Metaverse: Origins May 17, 2021 $9.99N/A (N/A)0 .. 20,0000%00:00 (00:00)Penumbra.techPenumbra.tech
501 Chroma Quaternion May 6, 2021 $14.99N/A (N/A)0 .. 20,0000%00:00 (00:00)Exe Create Inc.KEMCO
502 Keezeh The Spector of Time May 2, 2021 $2.99N/A (N/A)0 .. 20,0000%00:00 (00:00)rabbani prottoychalidus
503 Age of Fear 4: The Iron Killer Apr 30, 2021 $29.99N/A (N/A)0 .. 20,0000%00:00 (00:00)Leslaw SliwkoAge of Fear
504 Heaven vs Hell Apr 27, 2021 $2.99N/A (N/A)0 .. 20,0000%00:00 (00:00)Neex GamesGreenolor Studio
505 Elixir of Life Apr 26, 2021 $6.99N/A (N/A)0 .. 20,0000%00:00 (00:00)Gurcan GamesGurcan Games
506 Katja's Abyss: Tactics Apr 23, 2021 $4.99N/A (N/A)50,000 .. 100,0000%00:00 (00:00)Kiefer NemethKiefer Nemeth
507 NovaMundi Apr 13, 2021 $12.99N/A (N/A)0 .. 20,0000%00:00 (00:00)Slashware InteractiveSlashware Interactive
508 Strike Team Gladius Apr 8, 2021 $24.99N/A (N/A)0 .. 20,0000%00:00 (00:00)Wave Light Games Inc.Wave Light Games Inc.
509 Tactical Battle Chronicles: Prelude to a War Apr 7, 2021 $14.99N/A (N/A)0 .. 20,0000%00:00 (00:00)Andrew GardnerAndrew Gardner
510 Colony Ship: A Post-Earth Role Playing Game Apr 6, 2021 $29.99N/A (N/A)20,000 .. 50,0000%00:00 (00:00)Iron Tower StudioIron Tower Studio
511 FPS Tactics Apr 5, 2021 $9.99N/A (N/A)50,000 .. 100,0000%00:00 (00:00)HedeHede
512 Chesstle Apr 2, 2021 $4.99N/A (N/A)0 .. 20,0000%00:00 (00:00)Devil Kitty Games, LLCDevil Kitty Games, LLC
513 Dee-6: Dice Defenders Apr 1, 2021 $4.99N/A (N/A)0 .. 20,0000%00:00 (00:00)KBA3u's factoryKBA3u's factory
514 下一站江湖Ⅰ Apr 1, 2021 $19.99N/A (N/A)0 .. 20,0000%00:00 (00:00)白玉京工作室成都搜发互娱网络科技有限公司
515 Insanium Mar 31, 2021 $3.99N/A (N/A)20,000 .. 50,0000%00:00 (00:00)Conan McPhee, Joe AssiCatsmeat Studios
516 Apollyon: River of Life Mar 31, 2021 $14.99N/A (N/A)0 .. 20,0000%00:00 (00:00)ThuynderThuynder
517 REM Cycles Mar 31, 2021 $14.99N/A (N/A)0 .. 20,0000%00:00 (00:00)Indispensable StudiosIndispensable Studios
518 守卫魔兽-Guardian of Warcraft Mar 26, 2021 $0.99N/A (N/A)0 .. 20,0000%00:00 (00:00)长生长生
519 Dragon Blast - Crazy Action Super Hero Game Mar 26, 2021 $0.99N/A (N/A)0 .. 20,0000%00:00 (00:00)Blazio StudiosUY Studios
520 Black Legend Mar 25, 2021 $19.99N/A (N/A)20,000 .. 50,0000%00:00 (00:00)WarcaveWarcave
521 Burg Battle Mar 22, 2021 N/AN/A (N/A)0 .. 20,0000%00:00 (00:00)ElevenSeventy, LLCElevenSeventy, LLC
522 Golden Fall 2 Mar 18, 2021 $5.99N/A (N/A)0 .. 20,0000%00:00 (00:00)Ofer RubinsteinOfer Rubinstein
523 Magellania Mar 18, 2021 $9.99N/A (N/A)50,000 .. 100,0000%00:00 (00:00)IllunsoftIllunsoft
524 Majestic Trials Mar 11, 2021 $14.99N/A (N/A)50,000 .. 100,0000%00:00 (00:00)Alpha Strike Games LimitedAlpha Strike Games Limited
525 ChessLocke Mar 4, 2021 $6.99N/A (N/A)0 .. 20,0000%00:00 (00:00)Taylor HattonTaylor "Loxxulus" Hatton
526 Synth War Tactics Mar 2, 2021 $0.99N/A (N/A)0 .. 20,0000%00:00 (00:00)Bryce HochstedlerBryce Hochstedler
527 Urtuk: The Desolation Feb 27, 2021 $19.99N/A (N/A)50,000 .. 100,00025%13:48 (04:36)David KaletaDavid Kaleta
528 Kitty Tactics Feb 24, 2021 $3.99N/A (N/A)20,000 .. 50,0000%00:00 (00:00)Ibe DenauxIbe Denaux
529 Steven Universe: Unleash the Light Feb 19, 2021 $24.99N/A (N/A)50,000 .. 100,0000%00:00 (00:00)Grumpyface StudiosCartoon Network Games
530 Might is Right Feb 19, 2021 $9.99N/A (N/A)0 .. 20,0000%00:00 (00:00)Lazy KittyLazy Kitty
531 Shores Unknown Feb 17, 2021 $19.99N/A (N/A)0 .. 20,0000%00:00 (00:00)VallynneHitcents
532 Bravery Network Online Feb 16, 2021 $24.99N/A (N/A)0 .. 20,0000%00:00 (00:00)GLOAMGLOAM
533 ROGUERIA: Roguelikes X Tactics Feb 13, 2021 $14.49N/A (N/A)0 .. 20,0000%00:00 (00:00)Waxycorn Studio.Waxycorn Studio.
534 CELLAR | Roguelike + Quest Feb 10, 2021 $4.99N/A (N/A)20,000 .. 50,0000%00:00 (00:00)Pavel DivnenkoPavel Divnenko
535 Magical Battle Cry Feb 8, 2021 $19.99N/A (N/A)50,000 .. 100,0000%00:00 (00:00)羲和工作室羲和工作室
536 Killer 19 May 9, 2021 $2.99N/A (N/A)20,000 .. 50,0000%00:00 (00:00)SkyLine Studio, 熊昊思成, 徐熙尧SkyLine Studio
537 Hell Shuffle Feb 4, 2021 $14.99N/A (N/A)0 .. 20,0000%00:00 (00:00)ICE TICE T
538 Cartridge Monsters Feb 4, 2021 FreeN/A (N/A)20,000 .. 50,0000%00:00 (00:00)Happenstance GamesHappenstance Games
539 No.L85 Feb 2, 2021 FreeN/A (N/A)0 .. 20,0000%00:00 (00:00)LiZhengLiZheng
540 Fractalis Feb 2, 2021 $7.99N/A (N/A)20,000 .. 50,0000%00:00 (00:00)Revolutionary InteractiveRevolutionary Interactive
541 Red Hands – 2-Player Game Jan 29, 2021 $4.99N/A (N/A)20,000 .. 50,0000%00:00 (00:00)PeakselPeaksel
542 鬼谷八荒 Tale of Immortal Jan 27, 2021 $19.99N/A (N/A)10,000,000 .. 20,000,0003.86%18:20 (37:45)鬼谷工作室鬼谷工作室, Lightning Games
543 Utawarerumono: Prelude to the Fallen Jan 22, 2021 $59.99N/A (N/A)20,000 .. 50,0000%00:00 (00:00)AQUAPLUSDMM GAMES, Shiravune
544 Gemini Strategy Origin Jan 13, 2021 $3.99N/A (N/A)20,000 .. 50,0000%00:00 (00:00)Gemini Stars GamesHappy Max
545 Kingdom Heroes 8 Jan 12, 2021 $29.99N/A (N/A)500,000 .. 1,000,0005.26%03:12 (01:04)USERJOY Technology Co.,Ltd.USERJOY Technology Co.,Ltd.
546 Shards of Feyra Jan 10, 2021 $0.99N/A (N/A)20,000 .. 50,0000%00:00 (00:00)Feyra OnlineFeyra Online
547 Hero by Chance Jan 8, 2021 $1.99N/A (N/A)100,000 .. 200,0000%00:00 (00:00)Reborn EntertainmentReborn Entertainment
548 列传:革新战争 Jan 7, 2021 $16.99N/A (N/A)20,000 .. 50,0000%00:00 (00:00)Ash Game StudioAsh Game Studio, DreamStep
549 Two Die Jan 6, 2021 $4.99N/A (N/A)0 .. 20,0000%00:00 (00:00)Jon Lamont, Jon BraunJon Lamont, Jon Braun
550 Monads II Dec 31, 2020 $14.99N/A (N/A)0 .. 20,0000%00:00 (00:00)Team MonadTeam Monad
551 Realms of Antiquity: The Shattered Crown Dec 29, 2020 $20N/A (N/A)0 .. 20,0000%00:00 (00:00)Adam HaaseQuixotic Software
552 ZombieWave-UnlimitedChallenges Jan 6, 2021 $1.99N/A (N/A)100,000 .. 200,0000%00:00 (00:00)AlloyStoveAlloyStove
553 Unsung Story Dec 17, 2020 $29.99N/A (N/A)0 .. 20,0000%00:00 (00:00)Little OrbitLittle Orbit
554 Sink Again Dec 17, 2020 N/AN/A (N/A)20,000 .. 50,0000%00:00 (00:00)FlatcoonFlatcoon
555 Terra Randoma Dec 17, 2020 $14.99N/A (N/A)0 .. 20,0000%00:00 (00:00)Deniz K.Deniz K.
556 Arcanium: Rise of Akhan Dec 8, 2020 $24.99N/A (N/A)0 .. 20,0000%00:00 (00:00)Supercombo, Inc.Rogue Games, Inc.
557 Guildmaster: Gratuitous Subtitle Dec 7, 2020 $13.99N/A (N/A)0 .. 20,0000%00:00 (00:00)Jim Makes GamesJim Makes Games
558 Ruinverse Dec 3, 2020 $14.99N/A (N/A)0 .. 20,0000%00:00 (00:00)Exe Create Inc.KEMCO
559 Mini War - Three Kingdoms Nov 30, 2020 $0.99N/A (N/A)0 .. 20,0000%00:00 (00:00)YangZeyuYangZeyu
560 Eterna: Heroes Fall Nov 19, 2020 $16.99N/A (N/A)0 .. 20,0000%00:00 (00:00)Zu DigitalZu Digital
561 Eldrador Creatures Nov 19, 2020 $19.99N/A (N/A)0 .. 20,0000%00:00 (00:00)Independent Arts Software GmbHWild River Games
562 Myth Bearer Nov 10, 2020 $2.99N/A (N/A)0 .. 20,0000%00:00 (00:00)JC BaileyJC Bailey
563 Raiders! Forsaken Earth Nov 10, 2020 $19.99N/A (N/A)50,000 .. 100,0000%00:00 (00:00)Creative Storm Entertainment CreativeForge Games
564 Crystal Ortha Nov 5, 2020 $14.99N/A (N/A)20,000 .. 50,0000%00:00 (00:00)Hit-Point Co.,Ltd.KEMCO
565 Fantasy Grounds Unity Nov 5, 2020 $39.99N/A (N/A)20,000 .. 50,0000%00:00 (00:00)SmiteWorks USA, LLCSmiteWorks USA, LLC
566 Battle Hunters Nov 4, 2020 $14.99N/A (N/A)0 .. 20,0000%00:00 (00:00)Phase Two Games Pty. Ltd.Phase Two Games Pty. Ltd.
567 Kingdom Of Force Nov 1, 2020 $6.99N/A (N/A)0 .. 20,0000%00:00 (00:00)Beijing Hydra Technology Co., Ltd.Beijing Hydra Technology Co., Ltd.
568 REALITY Oct 30, 2020 $1.99N/A (N/A)0 .. 20,0000%00:00 (00:00)LunaRolexLerLunaRolexLer
569 Frag Oct 29, 2020 $5.99N/A (N/A)0 .. 20,0000%00:00 (00:00)ZuleZule
570 October Night Games Oct 29, 2020 $15.99N/A (N/A)20,000 .. 50,0000%00:00 (00:00)Octobear Knight GamesWhisperGames
571 Dread Nautical Oct 27, 2020 $19.99N/A (N/A)0 .. 20,0000%00:00 (00:00)Zen StudiosZen Studios
572 Arcante Oct 27, 2020 $7.99N/A (N/A)0 .. 20,0000%00:00 (00:00)Luca FavanoLuca Favano
573 Mystic Hammer Oct 23, 2020 $4.99N/A (N/A)0 .. 20,0000%00:00 (00:00)PozziSoftPozziSoft
574 The Dungeon Beneath Oct 23, 2020 $14.99N/A (N/A)20,000 .. 50,0000%00:00 (00:00)Puzzle Box GamesPuzzle Box Games
575 Clouds of Rain Oct 23, 2020 $0.99N/A (N/A)20,000 .. 50,0000%00:00 (00:00)Graphic Line GamesGraphic Line Games
576 AbsentedAge: Squarebound Oct 23, 2020 $12.99N/A (N/A)50,000 .. 100,0000%00:00 (00:00)terunon's Labterunon's Lab
577 TRANSFORMERS: BATTLEGROUNDS Oct 22, 2020 $24.99N/A (N/A)0 .. 20,0000%00:00 (00:00)CoatsinkOutright Games Ltd.
578 Tenderfoot Tactics Oct 21, 2020 $24.99N/A (N/A)0 .. 20,0000%00:00 (00:00)Badru, Michael Bell, Isa Hutchinson, Taylor Thomas, Zoe Vartanian, Madison PatheIce Water Games
579 This Is Not Chess Oct 20, 2020 $7.99N/A (N/A)20,000 .. 50,0000%00:00 (00:00)Courtney DawsonCourtney Dawson
580 Kingdom Rush Vengeance - Tower Defense Oct 15, 2020 $19.99N/A (N/A)200,000 .. 500,0008.33%01:24 (00:39)Ironhide Game StudioIronhide Game Studio
581 Partisans 1941 Oct 14, 2020 $5.99N/A (N/A)500,000 .. 1,000,0002%02:46 (00:55)Alter GamesDaedalic Entertainment
582 Dragon Lapis Oct 1, 2020 $14.99N/A (N/A)0 .. 20,0000%00:00 (00:00)Exe Create Inc.KEMCO
583 蜀山幻剑录 Sword of Shushan Sep 24, 2020 $9.99N/A (N/A)0 .. 20,0000%00:00 (00:00)星罗云布工作室星罗云布工作室
584 Spacer: Legacies Sep 23, 2020 $18.99N/A (N/A)0 .. 20,0000%00:00 (00:00)Brazen LegionsBrazen Legions
585 Infectra Sep 22, 2020 $0.37N/A (N/A)0 .. 20,0000%00:00 (00:00)Boar-in-gamesOrdinary Pine Studio
586 A Gay Love Story About Gay Love Sep 14, 2020 $0.99N/A (N/A)20,000 .. 50,0000%00:00 (00:00)Sigyaad TeamSigyaad Team
587 Disgaea 4 Complete+ Sep 10, 2020 $39.99N/A (N/A)50,000 .. 100,0000%00:00 (00:00)Nippon Ichi Software, Inc.NIS America, Inc.
588 Necromunda: Underhive Wars Sep 7, 2020 $19.99N/A (N/A)100,000 .. 200,0000%00:00 (00:00)Rogue FactorFocus Entertainment
589 Final Hope: The Plot Sep 3, 2020 $5.99N/A (N/A)0 .. 20,0000%00:00 (00:00)Djamp GamesDjamp Games
590 Time Break Chronicles Sep 1, 2020 $14.99N/A (N/A)50,000 .. 100,0000%00:00 (00:00)Warrior General Games, LLCWarrior General Games, LLC
591 Hell Pub Sep 1, 2020 $1.99N/A (N/A)0 .. 20,0000%00:00 (00:00)BJ StudioBJ Studio
592 Liege Dragon Aug 30, 2020 $14.99N/A (N/A)100,000 .. 200,0000%00:00 (00:00)Exe Create Inc.KEMCO
593 经天纪 Aug 23, 2020 $6.99N/A (N/A)20,000 .. 50,0000%00:00 (00:00)神经虾工作组欢乐不二
594 For the People Aug 13, 2020 $16.99N/A (N/A)20,000 .. 50,0000%00:00 (00:00)Brezg Studio101XP
595 Battle Sweeper Aug 13, 2020 $4.99N/A (N/A)0 .. 20,0000%00:00 (00:00)AlpaSun GamesAlpaSun Games
596 Canon - Legend of the New Gods Aug 7, 2020 $11.99N/A (N/A)0 .. 20,0000%00:00 (00:00)Super Fighter TeamPiko Interactive, Bleem!
597 Warriors of the Nile Aug 7, 2020 $12.99N/A (N/A)200,000 .. 500,0000%00:00 (00:00)Stove StudioGamera Games
598 Aye Aye, Captain Aug 4, 2020 $2.99N/A (N/A)0 .. 20,0000%00:00 (00:00)North State GamesNorth State Games
599 Westminster Darkly Aug 1, 2020 $3.99N/A (N/A)0 .. 20,0000%00:00 (00:00)Studio IncorrectStudio Incorrect
600 Fae Tactics Jul 31, 2020 $19.99N/A (N/A)50,000 .. 100,0000%00:00 (00:00)Endlessfluff GamesHumble Games
601 Chicken Bomb Jul 29, 2020 $0.99N/A (N/A)0 .. 20,0000%00:00 (00:00)GoesSoftGoesSoft
602 100-Level Dungeon Jul 23, 2020 $1.99N/A (N/A)20,000 .. 50,0000%00:00 (00:00)Jonathan.SJonathan.S
603 大千世界 Jul 17, 2020 $3.99N/A (N/A)200,000 .. 500,0000%00:00 (00:00)滑稽工作室滑稽工作室
604 最后的大法师 光明之旅(Last Archmage Journey of Light) Jul 16, 2020 $6.99N/A (N/A)20,000 .. 50,0000%00:00 (00:00)Flying Star GamesFlying Star Games
605 AVRACH RESURRECTION Jul 15, 2020 $5.99N/A (N/A)50,000 .. 100,0000%00:00 (00:00)Fluffy BisonsFluffy Bisons
606 Dark Bestiary Jul 12, 2020 $11.99N/A (N/A)20,000 .. 50,0000%00:00 (00:00)QdQd
607 ARIA CHRONICLE Jul 11, 2020 $17.99N/A (N/A)50,000 .. 100,0000%00:00 (00:00)STUDIO N9CREST
608 Little Town Hero Jul 9, 2020 $24.99N/A (N/A)0 .. 20,0000%00:00 (00:00)GAME FREAK inc.GAME FREAK inc.
609 Apprentice Arriving Jul 7, 2020 $12.99N/A (N/A)100,000 .. 200,0000%00:00 (00:00)Jewel Seeker EntertainmentJewel Seeker Entertainment
610 Stellaren II Jul 23, 2020 $3.99N/A (N/A)0 .. 20,0000%00:00 (00:00)nineduxninedux
611 Droid Guier Jun 30, 2020 $0.99N/A (N/A)0 .. 20,0000%00:00 (00:00)Caztellary StudioCaztellary Studio
612 Angels on Tanks Jun 23, 2020 $14.99N/A (N/A)0 .. 20,0000%00:00 (00:00)Ninju GamesNinju Games
613 DungeonTop Jun 21, 2020 $15.99N/A (N/A)20,000 .. 50,0000%00:00 (00:00)One Up Plus EntertainmentOne Up Plus Entertainment
614 WARBORN Jun 12, 2020 $24.99N/A (N/A)0 .. 20,0000%00:00 (00:00)Raredrop Games LtdPQube
615 The Dungeon Paradox Jun 2, 2020 $16.99N/A (N/A)0 .. 20,0000%00:00 (00:00)Digital SoftwareDigital Software
616 Tales Of Glory May 30, 2020 $29.99N/A (N/A)0 .. 20,0000%00:00 (00:00)BlackTale GamesBlackTale Games
617 Rugby League Team Manager 3 May 28, 2020 $39.99N/A (N/A)0 .. 20,0000%00:00 (00:00)Alternative Software LtdAlternative Software Ltd
618 Strategic Mind: Blitzkrieg May 22, 2020 $39.99N/A (N/A)20,000 .. 50,0000%00:00 (00:00)Starni GamesStarni Games
619 Cyber Ops May 21, 2020 $2.99N/A (N/A)20,000 .. 50,0000%00:00 (00:00)Octeto StudiosGames Operators
620 Moonfall May 20, 2020 $4.99N/A (N/A)0 .. 20,0000%00:00 (00:00)Zak AmanaZak Amana
621 Boston AInamics May 18, 2020 $9.99N/A (N/A)0 .. 20,0000%00:00 (00:00)HedeHede
622 Rise of the Foederati May 4, 2020 $8.9N/A (N/A)0 .. 20,0000%00:00 (00:00)Genos StudiosGenos Studios
623 Familia Dec 2019 $4.99N/A (N/A)50,000 .. 100,0000%00:00 (00:00)Maui Game Studio, Code MoraMaui Interactive, LLC
624 Koi Unleashed Apr 29, 2020 N/AN/A (N/A)0 .. 20,0000%00:00 (00:00)Wild GripWild Grip
625 Prime & Load : 1776 Apr 25, 2020 $7.99N/A (N/A)20,000 .. 50,0000%00:00 (00:00)Radio Silence EntertainmentRadio Silence Entertainment
626 XCOM: Chimera Squad Apr 23, 2020 $4.99N/A (N/A)500,000 .. 1,000,0001.1%00:35 (00:11)Firaxis Games2K
627 TROUBLESHOOTER: Abandoned Children Apr 23, 2020 $24.99N/A (N/A)200,000 .. 500,0000%00:00 (00:00)DandylionDandylion
628 Warhammer Underworlds: Online Apr 21, 2020 $9.99N/A (N/A)20,000 .. 50,0000%00:00 (00:00)Steel Sky ProductionsSteel Sky Productions
629 Survival Africa Apr 17, 2020 $16.99N/A (N/A)0 .. 20,0000%00:00 (00:00)MeanDeanIconic Studio
630 Fates of Ort Mar 31, 2020 $14.99N/A (N/A)0 .. 20,0000%00:00 (00:00)8BitSkull8BitSkull
631 Treachery in Beatdown City Mar 30, 2020 $19.99N/A (N/A)20,000 .. 50,0000%00:00 (00:00)NuChallenger, HurakanWorksNuChallenger
632 Lovehammer 400 000: The Buttlerian Crusade Mar 27, 2020 $19.99N/A (N/A)0 .. 20,0000%00:00 (00:00)Nerd Commando Game StudiosNerd Commando Game Studios
633 Bonfire Mar 26, 2020 $17.99N/A (N/A)0 .. 20,0000%00:00 (00:00)MoaCubeMoaCube
634 Grand Guilds Mar 26, 2020 $14.99N/A (N/A)0 .. 20,0000%00:00 (00:00)Drix StudiosDrix Studios
635 Iron Danger Mar 25, 2020 $2.99N/A (N/A)20,000 .. 50,0000%00:00 (00:00)Action Squad StudiosDaedalic Entertainment
636 Battle for Esturia Mar 19, 2021 $9.99N/A (N/A)20,000 .. 50,0000%00:00 (00:00)Esturia GamesEsturia Games
637 Langrisser I & II Mar 10, 2020 $49.99N/A (N/A)20,000 .. 50,0000%00:00 (00:00)Chara-ani CorporationNIS America, Inc.
638 Horizon's Gate Mar 9, 2020 $19.99N/A (N/A)50,000 .. 100,0000%00:00 (00:00)Rad CodexRad Codex
639 Frontline: Panzer Blitzkrieg! Mar 6, 2020 $9.99N/A (N/A)0 .. 20,0000%00:00 (00:00)Frontline: Games SeriesFrontline: Games Series
640 Mainframe Defenders Feb 25, 2020 $5.99N/A (N/A)50,000 .. 100,0000%00:00 (00:00)Synthetic DomainSynthetic Domain
641 Wasteland Remastered Feb 25, 2020 $14.99N/A (N/A)20,000 .. 50,0000%00:00 (00:00)inXile Entertainment, Krome StudiosinXile Entertainment
642 RaidTitans Feb 6, 2020 $8.99N/A (N/A)0 .. 20,0000%00:00 (00:00)RainbowStudioRainbowStudio
643 Mortal Glory Jan 29, 2020 $7.99N/A (N/A)50,000 .. 100,0000%00:00 (00:00)Redbeak GamesRedbeak Games
644 浮世万千之前世今生 Jan 27, 2020 $10.99N/A (N/A)50,000 .. 100,0000%00:00 (00:00)飞天大胖喵飞天大胖喵
645 Der Geisterturm / The Ghost Tower Jan 23, 2020 $14.99N/A (N/A)0 .. 20,0000%00:00 (00:00)Graverobber FoundationGraverobber Foundation
646 Utawarerumono: Mask of Deception Jan 23, 2020 $39.99N/A (N/A)20,000 .. 50,0000%00:00 (00:00)AQUAPLUSDMM GAMES, Shiravune
647 Utawarerumono: Mask of Truth Jan 23, 2020 $39.99N/A (N/A)20,000 .. 50,0000%00:00 (00:00)AQUAPLUSDMM GAMES, Shiravune
648 Graywalkers: Purgatory Jan 15, 2020 $24.99N/A (N/A)0 .. 20,0000%00:00 (00:00)Dreamlords Digital Inc.Dreamlords Digital Inc.
649 Vestaria Saga I: War of the Scions Dec 27, 2019 $19.99N/A (N/A)20,000 .. 50,0000%00:00 (00:00)Vestaria ProjectDANGEN Entertainment, Gamera Games
650 Dinodrifters Dec 20, 2019 $9.99N/A (N/A)0 .. 20,0000%00:00 (00:00)Jake Hugh Reece WilsonTrywelyn Productions
651 Day of Dragons Dec 4, 2019 $13.99N/A (N/A)100,000 .. 200,0000%00:00 (00:00)Beawesome GamesBeawesome Games
652 Steam Marines 2 Nov 20, 2019 $24.99N/A (N/A)0 .. 20,0000%00:00 (00:00)Worthless BumsWorthless Bums
653 Time For Quest Nov 14, 2019 $7.99N/A (N/A)0 .. 20,0000%00:00 (00:00)Blacer Studio, Nikodem SwiderSource Byte Sp. z o.o., Blacer Studio
654 Albedon Wars Nov 7, 2019 $24.99N/A (N/A)0 .. 20,0000%00:00 (00:00)Firemill GamesFiremill Games
655 Time of the Moon Nov 1, 2019 $9.99N/A (N/A)0 .. 20,0000%00:00 (00:00)DawnfoxDawnfox
656 Strategic Mind: The Pacific Oct 25, 2019 $29.99N/A (N/A)20,000 .. 50,0000%00:00 (00:00)Starni GamesStarni Games
657 Lakeview Valley Oct 22, 2019 $14.99N/A (N/A)50,000 .. 100,0000%00:00 (00:00)Roope TamminenRoope Tamminen
658 Spaceland: Sci-Fi Indie Tactics Sep 30, 2019 $14.99N/A (N/A)50,000 .. 100,0000%00:00 (00:00)Tortuga TeamTortuga Team
659 Balance Breakers - A Battle Party Game Sep 27, 2019 $16.99N/A (N/A)0 .. 20,0000%00:00 (00:00)Gamestry LabGamestry Lab
660 Royal Merchant Sep 11, 2019 $9.99N/A (N/A)0 .. 20,0000%00:00 (00:00)BadimBadim
661 First Day Sep 1, 2019 FreeN/A (N/A)50,000 .. 100,0000%00:00 (00:00)BadWolf GamesBadWolf Games
662 RogueVerse Aug 22, 2019 $9.99N/A (N/A)0 .. 20,0000%00:00 (00:00)FoumartGamesFoumartGames
663 Dungeon Scavenger Aug 21, 2019 $5.59N/A (N/A)0 .. 20,0000%00:00 (00:00)Vidama Software LLCVidama Software LLC
664 巅峰骑士团 Aug 27, 2019 $8.99N/A (N/A)100,000 .. 200,0000%00:00 (00:00)熊窝dodox熊窝dodox, RuiXiao
665 Tactics V: "Obsidian Brigade" Aug 8, 2019 $14.99N/A (N/A)0 .. 20,0000%00:00 (00:00)From Nothing Game StudiosFrom Nothing Game Studios
666 Dead Hand Jul 26, 2019 $19.99N/A (N/A)0 .. 20,0000%00:00 (00:00)One Man Army GamesOne Man Army Games
667 To Battle!: Hell's Crusade Jul 24, 2019 $8.99N/A (N/A)0 .. 20,0000%00:00 (00:00)Filthy Peasant GamesFilthy Peasant Games
668 英雄群侠传II Jul 15, 2019 $19.99N/A (N/A)100,000 .. 200,0000%00:00 (00:00)熊窝dodox熊窝dodox, RuiXiao
669 It Stares Back Jun 25, 2019 $9.99N/A (N/A)0 .. 20,0000%00:00 (00:00)Light Arc Studio LtdLight Arc Studio Ltd
670 Golden Fall Jun 14, 2019 $1.99N/A (N/A)0 .. 20,0000%00:00 (00:00)Ofer RubinsteinOfer Rubinstein
671 GOD WARS The Complete Legend Jun 13, 2019 $29.99N/A (N/A)0 .. 20,0000%00:00 (00:00)DRAGAMI GAMES, LTD.DRAGAMI GAMES, LTD.
672 Age of Fear: The Undead King GOLD Jun 11, 2019 $29.99N/A (N/A)0 .. 20,0000%00:00 (00:00)Leslaw SliwkoAge of Fear
673 Cardlings Jun 5, 2019 $4.99N/A (N/A)0 .. 20,0000%00:00 (00:00)Clockwork ChilliClockwork Chilli
674 Between the Stars May 28, 2019 $29.99N/A (N/A)50,000 .. 100,0002.86%00:26 (00:08)Isolated GamesIsolated Games, Poysky Productions, WhisperGames
675 Banner of the Maid May 27, 2019 $16.99N/A (N/A)200,000 .. 500,0000%00:00 (00:00)Azure Flame StudioCE-Asia
676 Idle Portal Guardian May 20, 2019 $2.99N/A (N/A)0 .. 20,0000%00:00 (00:00)ThejamiryuThejamiryu Inc.
677 Light Fairytale Episode 1 May 13, 2019 $9.99N/A (N/A)50,000 .. 100,0000%00:00 (00:00)neko.worksneko.works
678 Legend of Cina Mar 29, 2019 FreeN/A (N/A)0 .. 20,0000%00:00 (00:00)YunkaiYunkai
679 Monads Feb 15, 2019 $9.99N/A (N/A)0 .. 20,0000%00:00 (00:00)Team MonadTeam Monad
680 Element Space Feb 14, 2019 $24.99N/A (N/A)0 .. 20,0000%00:00 (00:00)Sixth VowelInca Games
681 Euclidean Skies Feb 5, 2019 $4.99N/A (N/A)0 .. 20,0000%00:00 (00:00)Miro StrakaMiro Straka
682 Dragon Iris Feb 1, 2019 $1.99N/A (N/A)0 .. 20,0000%00:00 (00:00)Leonardo M A SilvaConsttelattions
683 Nomads of the Fallen Star Jan 30, 2019 $12.99N/A (N/A)20,000 .. 50,0000%00:00 (00:00)Huy PhanHuy Phan
684 Rogue Empire: Dungeon Crawler RPG Jan 25, 2019 $14.99N/A (N/A)0 .. 20,0000%00:00 (00:00)Portal EntertainmentPortal Entertainment
685 Shieldwall Chronicles: Swords of the North Dec 16, 2018 $14.99N/A (N/A)20,000 .. 50,0000%00:00 (00:00)Wave Light Games Inc.Wave Light Games Inc.
686 Ancient Frontier: Steel Shadows Dec 11, 2018 $14.99N/A (N/A)0 .. 20,0000%00:00 (00:00)Fair Weather Studios, LLCFair Weather Studios, LLC
687 Royal Booty Quest Nov 22, 2018 $19.99N/A (N/A)0 .. 20,0000%00:00 (00:00)BadimBadim
688 Disgaea 5 Complete Oct 22, 2018 $39.99N/A (N/A)200,000 .. 500,0000%00:00 (00:00)Nippon Ichi Software, Inc.NIS America, Inc.
689 Vigilantes Oct 3, 2018 $14.99N/A (N/A)0 .. 20,0000%00:00 (00:00)Timeslip SoftworksTimeslip Softworks
690 Depth of Extinction Sep 27, 2018 $14.99N/A (N/A)20,000 .. 50,0000%00:00 (00:00)HOF StudiosHOF Studios
691 Das Geisterschiff / The Ghost Ship Nov 24, 2018 $9.99N/A (N/A)20,000 .. 50,0000%00:00 (00:00)Graverobber FoundationGraverobber Foundation
692 SFD : Rogue TRPG Aug 31, 2018 $7.99N/A (N/A)0 .. 20,0000%00:00 (00:00)icefillicefill
693 Dustwind Aug 15, 2018 $24.99N/A (N/A)20,000 .. 50,0000%00:00 (00:00)Dustwind StudiosZ-Software GmbH, Dustwind Studios
694 Sword Legacy: Omen Aug 13, 2018 $17.99N/A (N/A)20,000 .. 50,0000%00:00 (00:00)Firecast Studio, Fableware Narrative DesignTeam17 Digital Ltd
695 Star Traders: Frontiers Jul 31, 2018 $14.99N/A (N/A)100,000 .. 200,0000%00:00 (00:00)Trese BrothersTrese Brothers
696 Throw Anything Jul 26, 2018 $16.99N/A (N/A)0 .. 20,0000%00:00 (00:00)Visual LightVisual Light
697 Ganbare! Super Strikers Jul 26, 2018 $9.99N/A (N/A)0 .. 20,0000%00:00 (00:00)reserese
698 The Chronicles of Quiver Dick Jul 9, 2018 $2.99N/A (N/A)20,000 .. 50,0000%00:00 (00:00)Crankage GamesCrankage Games
699 Lost Legend Jul 2, 2018 $2.99N/A (N/A)50,000 .. 100,0000%00:00 (00:00)Unhinged LLCUnhinged LLC
700 Anima: Gate of Memories - The Nameless Chronicles Jun 19, 2018 $19.99N/A (N/A)0 .. 20,0000%00:00 (00:00)Anima ProjectBadLand Publishing
701 qop 3 Jun 7, 2018 $1.99N/A (N/A)20,000 .. 50,0000%00:00 (00:00)Quiet RiverQuiet River
702 In memory of TITAN Jun 2, 2018 $14.99N/A (N/A)0 .. 20,0000%00:00 (00:00)Valhalla Universe, Inc.XR Studio LLC
703 Spaceship Commander May 23, 2018 $9.99N/A (N/A)0 .. 20,0000%00:00 (00:00)Sokolov Yaroslav VladimirovichSokolov Yaroslav Vladimirovich
704 Bastard May 14, 2018 $8.99N/A (N/A)50,000 .. 100,0000%00:00 (00:00)Aterdux EntertainmentAterdux Entertainment
705 Demon's Rise - War for the Deep Apr 29, 2018 $6.99N/A (N/A)0 .. 20,0000%00:00 (00:00)Wave Light Games Inc.Wave Light Games Inc.
706 Magic Scroll Tactics / マジックスクロールタクティクス / 魔法卷轴 / 魔法捲軸 Apr 27, 2018 $11.99N/A (N/A)20,000 .. 50,0000%00:00 (00:00)オートリ電子オートリ電子, Gamera Games
707 Demon's Rise - Lords of Chaos Apr 24, 2018 $6.99N/A (N/A)20,000 .. 50,0000%00:00 (00:00)Wave Light Games Inc.Wave Light Games Inc.
708 Tactics & Strategy Master:Joan of Arc Mar 28, 2018 $4.99N/A (N/A)20,000 .. 50,0000%00:00 (00:00)Gemini Stars GamesGemini Stars Games
709 Aplestia Feb 19, 2018 $3.99N/A (N/A)0 .. 20,0000%00:00 (00:00)Orfeas Game StudioOrfeas Game Studio
710 Ambition of the Slimes Feb 15, 2018 $4.99N/A (N/A)20,000 .. 50,0000%00:00 (00:00)altairworksFlyhigh Works, CIRCLE Entertainment
711 Necromancer Returns Feb 1, 2018 $9.99N/A (N/A)0 .. 20,0000%00:00 (00:00)Greenolor StudioGreenolor Studio
712 Army of Tentacles: (Not) A Cthulhu Dating Sim: Black GOAT of the Woods Edition Jan 4, 2018 $5.27N/A (N/A)0 .. 20,0000%00:00 (00:00)Stegalosaurus Game DevelopmentStegalosaurus Game Development
713 Strike Team Hydra Dec 8, 2017 $6.99N/A (N/A)0 .. 20,0000%00:00 (00:00)Wave Light Games Inc.Wave Light Games Inc.
714 Reverse Fantasy Legend Nov 23, 2017 $18.99N/A (N/A)0 .. 20,0000%00:00 (00:00)废材炼金术士废材炼金术士
715 Willy-Nilly Knight Nov 10, 2017 $14.99N/A (N/A)20,000 .. 50,0000%00:00 (00:00)Double Dice GamesDouble Dice Games
716 Reprogram Nov 9, 2017 $9.99N/A (N/A)0 .. 20,0000%00:00 (00:00)KompilerKompiler
717 Lost Dimension Oct 30, 2017 $24.99N/A (N/A)20,000 .. 50,0000%00:00 (00:00)FURYU CorporationGhostlight LTD
718 Bionic Battle Mutants Oct 24, 2017 $4.99N/A (N/A)50,000 .. 100,0000%00:00 (00:00)MonkeyneticsMonkeynetics
719 Warbanners Oct 18, 2017 $19.99N/A (N/A)50,000 .. 100,0000%00:00 (00:00)Crasleen GamesCrasleen Games
720 Beastmancer Oct 5, 2017 $9.99N/A (N/A)0 .. 20,0000%00:00 (00:00)AutarcaAutarca
721 Ancient Frontier Sep 21, 2017 $24.99N/A (N/A)0 .. 20,0000%00:00 (00:00)Fair Weather Studios, LLCFair Weather Studios, LLC
722 Legion Tale Sep 20, 2017 $4.99N/A (N/A)50,000 .. 100,0000%00:00 (00:00)Maulidan GamesMaulidan Games
723 Garden Tale Sep 13, 2017 $1.99N/A (N/A)20,000 .. 50,0000%00:00 (00:00)Bonion GamesPLAYISM
724 Steam Tactics Sep 12, 2017 $4.99N/A (N/A)20,000 .. 50,0000%00:00 (00:00)Igor RashkuevIgor Rashkuev
725 Age of Fear 3: The Legend Sep 1, 2017 $29.99N/A (N/A)0 .. 20,0000%00:00 (00:00)Leslaw SliwkoAge of Fear
726 Weaves of Fate Aug 3, 2017 $3.99N/A (N/A)20,000 .. 50,0000%00:00 (00:00)Tom KingstonTom Kingston
727 Metal as Phuk Jul 13, 2017 $4.99N/A (N/A)0 .. 20,0000%00:00 (00:00)Crankage GamesCrankage Games
728 Brigand: Oaxaca Jul 11, 2017 $5.99N/A (N/A)1,000,000 .. 2,000,0000%00:00 (00:00)Brian Lancaster, Laughing Coyote SoftwareBrian Lancaster, Laughing Coyote Software
729 Monsters' Den: Godfall Jul 6, 2017 $14.99N/A (N/A)50,000 .. 100,0000%00:00 (00:00)MonstrumMonstrum
730 Swords and Sandals 2 Redux Jun 29, 2017 $8.99N/A (N/A)50,000 .. 100,0000%00:00 (00:00)Whiskeybarrel StudioseGames.com
731 Alvora Tactics Jun 1, 2017 $9.99N/A (N/A)0 .. 20,0000%00:00 (00:00)Rad CodexRad Codex
732 Three Days May 19, 2017 $2.99N/A (N/A)50,000 .. 100,0000%00:00 (00:00)Lewis Bergin, GorePixelGamesLewis Bergin
733 NEXT JUMP: Shmup Tactics Apr 28, 2017 $4.99N/A (N/A)50,000 .. 100,0000%00:00 (00:00)Post Mortem PixelsPost Mortem Pixels
734 Tokyo Twilight Ghost Hunters Daybreak: Special Gigs Mar 17, 2017 $9.99N/A (N/A)0 .. 20,0000%00:00 (00:00)Arc System Works, TOYBOX Inc.PQube
735 Pixel Privateers Feb 21, 2017 $14.99N/A (N/A)50,000 .. 100,0000%00:00 (00:00)Quadro DeltaRe-Logic
736 Wacky Spores: The Chase Feb 10, 2017 $8.99N/A (N/A)0 .. 20,0000%00:00 (00:00)Lorenzo BellincampiLorenzo Bellincampi
737 Hellenica Jan 23, 2017 $9.99N/A (N/A)0 .. 20,0000%00:00 (00:00)The DragonloftThe Dragonloft
738 Alien Shooter TD Jan 13, 2017 $9.99N/A (N/A)50,000 .. 100,0000%00:00 (00:00)Sigma Team Inc.Sigma Team Inc.
739 Low Magic Age Jan 10, 2017 $14.99N/A (N/A)200,000 .. 500,0000%00:00 (00:00)Low Magic StudiosLow Magic Studios
740 Advanced Gaming Platform::Epica Dec 22, 2016 $19.99N/A (N/A)20,000 .. 50,0000%00:00 (00:00)AGP::StudiosAGP::Studios
741 Moekuri: Adorable + Tactical SRPG Dec 16, 2016 $11.99N/A (N/A)20,000 .. 50,0000%00:00 (00:00)MokyuSoftCulture Select
742 Castle Battles Dec 16, 2016 $9.99N/A (N/A)0 .. 20,0000%00:00 (00:00)Light Arc Studio LtdLight Arc Studio Ltd
743 Gladiator Trainer Nov 25, 2016 $0.65N/A (N/A)100,000 .. 200,0000%00:00 (00:00)Pilgrim AdventuresSenpai Studios
744 Age of Fear: The Undead King Nov 15, 2016 $24.99N/A (N/A)20,000 .. 50,0000%00:00 (00:00)Leslaw SliwkoAge of Fear
745 Dungeon Rats Nov 4, 2016 $4.99N/A (N/A)50,000 .. 100,0000%00:00 (00:00)Iron Tower StudioIron Tower Studio
746 Farabel Oct 14, 2016 $9.99N/A (N/A)20,000 .. 50,0000%00:00 (00:00)FrogamesFrogames, Goblinz Digital, indienova
747 Stellar Tactics Sep 22, 2016 $19.99N/A (N/A)50,000 .. 100,0000%00:00 (00:00)Maverick GamesMaverick Games
748 Sorcerer King: Rivals Sep 22, 2016 $19.99N/A (N/A)50,000 .. 100,0000%00:00 (00:00)Stardock EntertainmentStardock Entertainment
749 Wooden House Sep 5, 2016 $0.99N/A (N/A)100,000 .. 200,0000%00:00 (00:00)GDNomaDGDNomaD
750 The Storm Guard: Darkness is Coming Aug 25, 2016 $19.99N/A (N/A)50,000 .. 100,0000%00:00 (00:00)Bitmen StudiosBitmen Studios
751 Mugen Souls Z Aug 25, 2016 $19.99N/A (N/A)0 .. 20,0000%00:00 (00:00)Idea FactoryGhostlight LTD
752 Phantom Brave PC Jul 25, 2016 $19.99N/A (N/A)50,000 .. 100,0000%00:00 (00:00)Nippon Ichi Software, Inc.NIS America, Inc.
753 Frost Jul 5, 2016 $6.99N/A (N/A)0 .. 20,0000%00:00 (00:00)Jérôme BodinLe Studio des Ténèbres
754 Disgraced Nov 18, 2016 $9.99N/A (N/A)50,000 .. 100,0000%00:00 (00:00)Corrosive Studios LLCCorrosive Studios LLC
755 Flesh Eaters May 3, 2016 $1.99N/A (N/A)500,000 .. 1,000,0000%00:00 (00:00)S.C. 16 BIT NIGHTS S.R.L.S.C. 16 BIT NIGHTS S.R.L.
756 Bastard Bonds Apr 29, 2016 $10.99N/A (N/A)20,000 .. 50,0000%00:00 (00:00)BigfingersBigfingers
757 Hyperdevotion Noire: Goddess Black Heart (Neptunia) Apr 26, 2016 $14.99N/A (N/A)100,000 .. 200,0000%00:00 (00:00)Idea Factory, Compile Heart, StingIdea Factory International
758 Age of Fear 2: The Chaos Lord GOLD Mar 27, 2016 $24.99N/A (N/A)0 .. 20,0000%00:00 (00:00)Leslaw SliwkoAge of Fear
759 Worlds of Chaos: Invasion Feb 10, 2016 $14.99N/A (N/A)0 .. 20,0000%00:00 (00:00)TactichaosTactichaos
760 Into the Void Dec 4, 2015 $1.99N/A (N/A)20,000 .. 50,0000%00:00 (00:00)Mozg LabsMozg Labs
761 Voidspire Tactics Nov 2, 2015 $14.99N/A (N/A)20,000 .. 50,0000%00:00 (00:00)Rad CodexRad Codex
762 Mugen Souls Oct 22, 2015 $19.99N/A (N/A)50,000 .. 100,0000%00:00 (00:00)Idea FactoryGhostlight LTD
763 Fairspace Oct 21, 2015 $8.99N/A (N/A)0 .. 20,0000%00:00 (00:00)Sub Orbital SoftwareSub Orbital Software
764 Reverse Crawl Sep 24, 2015 $5.99N/A (N/A)50,000 .. 100,0000%00:00 (00:00)Nerdook ProductionsDigerati
765 Templar Battleforce Sep 21, 2015 $9.99N/A (N/A)100,000 .. 200,0000%00:00 (00:00)Trese BrothersTrese Brothers
766 Braveland Pirate Sep 14, 2015 $11.99N/A (N/A)50,000 .. 100,0000%00:00 (00:00)Tortuga TeamTortuga Team
767 Renowned Explorers: International Society Sep 2, 2015 $19.99N/A (N/A)200,000 .. 500,0000%00:00 (00:00)Abbey GamesAbbey Games
768 Fallen: A2P Protocol Aug 14, 2015 $9.99N/A (N/A)50,000 .. 100,0000%00:00 (00:00)Red KatanaRed Katana
769 Breach & Clear: Deadline Rebirth (2016) Jul 20, 2015 $9.99N/A (N/A)100,000 .. 200,0000%00:00 (00:00)Mighty Rabbit Studios, Gun MediaGood Shepherd Entertainment, Devolver Digital
770 Centauri Sector Jun 24, 2015 $4.99N/A (N/A)0 .. 20,0000%00:00 (00:00)GNeguceanuGNeguceanu
771 Tap Heroes Jun 5, 2015 $2.99N/A (N/A)100,000 .. 200,0000%00:00 (00:00)VaragtPVaragtP
772 Waste Walkers Jun 1, 2015 $9.99N/A (N/A)20,000 .. 50,0000%00:00 (00:00)Corrosive Studios LLCCorrosive Studios LLC
773 Telepath Tactics Apr 16, 2015 $14.99N/A (N/A)0 .. 20,0000%00:00 (00:00)Sinister DesignSinister Design
774 FLAMBERGE Mar 25, 2015 $9.99N/A (N/A)0 .. 20,0000%00:00 (00:00)HYDEZEKEStardock Entertainment
775 Agarest: Generations of War 2 Feb 19, 2015 $19.99N/A (N/A)20,000 .. 50,0000%00:00 (00:00)Idea FactoryGhostlight LTD
776 Rime Berta Dec 16, 2014 $14.99N/A (N/A)20,000 .. 50,0000%00:00 (00:00)NEXT-SOFT+PLAYISM
777 Braveland Wizard Dec 4, 2014 $9.99N/A (N/A)20,000 .. 50,0000%00:00 (00:00)Tortuga TeamTortuga Team
778 Valkyria Chronicles Nov 11, 2014 $19.99N/A (N/A)500,000 .. 1,000,0001.16%02:07 (00:42)SEGASEGA
779 Sproggiwood Oct 24, 2014 $14.99N/A (N/A)100,000 .. 200,0000%00:00 (00:00)Freehold GamesFreehold Games
780 Social Justice Warriors May 12, 2014 $7.99N/A (N/A)50,000 .. 100,0000%00:00 (00:00)Nonadecimal CreativeNonadecimal Creative
781 Fantasy Grounds Classic May 9, 2014 N/AN/A (N/A)100,000 .. 200,0000%00:00 (00:00)SmiteWorks USA, LLCSmiteWorks USA, LLC
782 Heroes of Steel RPG Apr 23, 2014 $9.99N/A (N/A)100,000 .. 200,0000%00:00 (00:00)Trese BrothersTrese Brothers
783 Agarest: Generations of War Zero Apr 17, 2014 $19.99N/A (N/A)50,000 .. 100,0000%00:00 (00:00)Idea FactoryGhostlight LTD
784 Braveland Mar 17, 2014 $7.99N/A (N/A)5,000,000 .. 10,000,0000%00:00 (00:00)Tortuga TeamTortuga Team
785 Agarest: Generations of War Feb 4, 2014 $14.99N/A (N/A)100,000 .. 200,0000%00:00 (00:00)Idea FactoryGhostlight LTD
786 Defender's Quest: Valley of the Forgotten (DX edition) Oct 30, 2012 $14.99N/A (N/A)200,000 .. 500,0000%00:00 (00:00)Level Up Labs, LLCLevel Up Labs
787 Shining Force Jan 26, 2011 $0.99N/A (N/A)20,000 .. 50,0000%00:00 (00:00)SEGASEGA
788 Shining Force II Jan 26, 2011 $0.99N/A (N/A)20,000 .. 50,0000%00:00 (00:00)SEGASEGA
789 Monsters' Den: Book of Dread Jun 1, 2008 $4.99N/A (N/A)100,000 .. 200,0000%00:00 (00:00)MonstrumMonstrum
790 7,62 High Calibre Aug 24, 2007 $4.99N/A (N/A)50,000 .. 100,0000%00:00 (00:00)ApeironFulqrum Publishing
791 Magi Jan 17, 2017 $9.99N/A (N/A)0 .. 20,0000%00:00 (00:00)MoaCubeMoaCube
792 Castles & Catapults Mar 12, 2003 $7.99N/A (N/A)50,000 .. 100,0000%00:00 (00:00)Magic LanternAtari
793 Gorky 17 Dec 31, 1999 $4.99N/A (N/A)500,000 .. 1,000,0000%00:00 (00:00)Topware Interactive ACE
794 Jagged Alliance 1: Gold Edition Jun 2, 1994 $9.99N/A (N/A)50,000 .. 100,0000%00:00 (00:00)Sir-Tech, Madlab SoftwareTHQ Nordic
795 Sabre Team Jan 1, 1992 $6.99N/A (N/A)1,000,000 .. 2,000,0000%00:00 (00:00)Krisalis SoftwareZiggurat
Overview

Tactical RPG

Games with this tag: 795
Average userscore: N/A%
Average metascore: 73.13%
Average playtime: 06:58
Total copies owned: 97,466,000
Average price: $14.18
Help

Owners: Estimated number of people owning this game. The number might be way too small for new releases and sometimes way too big for games that had free weekend event recently. Read more on About page.

Playtime: Average hours played in total per person that have actually launched this game since March 2009. This time is calculated for the whole lifetime, not for the particular year.

Average score: Average users and metacritic score for all games with this score assigned.

Average playtime: Average lifetime playtime for all games where this data is available.

Games in this genre: Self-explaining - number of games with this tag. Only inculdes games with sales data available.

Total copies owned: Refers to total copies of games with this tag acquired by users for the lifetime. Includes copies sold, downloaded for free and given out.

This number might be too small for recently released games or too big for games that had a free weekend in the last couple of months.

Graphs

Login required.

Please register or log in to see this information.

Login required.

Please register or log in to see this information.